SondeTracker

Meteorological Radiosondes Database

Operations

Sounding was ended - last measurement: 2022-12-07 14:21:10z

MAP
About Radiosonde

Number: S2950357

Launch Site: A Coruña (ES)

Type: RS41

AUX: NO

Frequency: 404.001 MHz

Max Speed: 111 km/h at 10434 m

Average Speed: 43.45 km/h

Max Altitude: 29213 m

Average Ascent Speed: 4.13 m/s

Average Descent Speed: 6.72 m/s

Status: UNKNOWN

Status Changes
Launch Site Type AUX Frequency Status Finder Landing Point Description Changes made by
APRS Statistics

Received Frames: 739

First Frame [UTC]: 2022-12-07 11:18:00z

Last Frame [UTC]: 2022-12-07 14:21:10z

Receivers: CT7AUS-11, EA1JAY-15, EA1JAY-16, EA4EKH-11, EB4FMT-14

Flight Time: 03:03:10 h

Distance From First Measurement: 97.77 km

Nearest City: Castro de Rey (ES) [15.15 km]

Nearest Hunter: ea1irt [32.74 km]

Ground Altitude: 333 m

Distance from QTH: 0.00 km

APRS Data
Receiver Number Date/Time [UTC] φ λ Course [°] Speed [km/h] Altitude [m] Description
EA1JAY-16S29503572022-12-07 14:21:1043.2855-7.2463322111122Clb=-3.0m/s p=888.7hPa t=7.7C h=83.4% 404.000MHz Type=RS41-SGP rdzTTGOsonde
EA1JAY-16S29503572022-12-07 14:20:4843.2849-7.24546313171195Clb=-3.4m/s p=880.9hPa t=7.3C h=76.9% 404.000MHz Type=RS41-SGP TxOff=7h19m rdzTTGOsonde
EA1JAY-16S29503572022-12-07 14:20:2743.2845-7.24434290171266Clb=-3.3m/s p=873.4hPa t=6.9C h=73.0% 404.000MHz Type=RS41-SGP TxOff=7h19m rdzTTGOsonde
EA1JAY-16S29503572022-12-07 14:20:0743.2842-7.2436332111336Clb=-3.1m/s p=866.0hPa t=6.5C h=72.9% 404.000MHz Type=RS41-SGP TxOff=7h20m rdzTTGOsonde
EA1JAY-16S29503572022-12-07 14:19:4543.2835-7.24317334221403Clb=-2.8m/s p=858.8hPa t=5.9C h=75.8% 404.000MHz Type=RS41-SGP TxOff=7h20m rdzTTGOsonde
EA1JAY-16S29503572022-12-07 14:19:2543.2827-7.24217307171465Clb=-3.2m/s p=852.1hPa t=5.6C h=77.8% 404.000MHz Type=RS41-SGP TxOff=7h20m rdzTTGOsonde
EA1JAY-16S29503572022-12-07 14:19:0443.2821-7.24157341131533Clb=-3.4m/s p=845.1hPa t=4.9C h=79.9% 404.000MHz Type=RS41-SGP TxOff=7h21m rdzTTGOsonde
EA1JAY-16S29503572022-12-07 14:18:4443.2813-7.24125334241600Clb=-3.7m/s p=838.3hPa t=4.4C h=78.0% 404.000MHz Type=RS41-SGP TxOff=7h21m rdzTTGOsonde
EA1JAY-16S29503572022-12-07 14:18:2443.2806-7.24065354131672Clb=-3.4m/s p=831.0hPa t=3.8C h=78.3% 404.000MHz Type=RS41-SGP TxOff=7h22m rdzTTGOsonde
EA1JAY-16S29503572022-12-07 14:18:0343.2797-7.24053339241745Clb=-3.6m/s p=823.5hPa t=3.2C h=77.1% 404.000MHz Type=RS41-SGP TxOff=7h22m rdzTTGOsonde
EA1JAY-16S29503572022-12-07 14:17:4343.2791-7.2435791820Clb=-3.5m/s p=816.0hPa t=2.5C h=80.8% 404.000MHz Type=RS41-SGP TxOff=7h22m rdzTTGOsonde
EA1JAY-16S29503572022-12-07 14:17:2243.2781-7.23995335201896Clb=-3.7m/s p=808.3hPa t=1.7C h=85.7% 404.000MHz Type=RS41-SGP TxOff=7h23m rdzTTGOsonde
EA1JAY-15S29503572022-12-07 14:17:1243.2777-7.2396634991962Clb=-4.3m/s p=804.4hPa t=1.3C h=88.4% 404.000MHz Type=RS41-SGP TxOff=7h23m rdzTTGOsonde
EA1JAY-16S29503572022-12-07 14:17:0143.2775-7.2396920111982Clb=-3.8m/s p=799.8hPa t=0.8C h=91.3% 404.000MHz Type=RS41-SGP TxOff=7h23m rdzTTGOsonde
EA1JAY-15S29503572022-12-07 14:16:4943.2771-7.2399316202031Clb=-4.0m/s p=795.0hPa t=0.4C h=93.0% 404.000MHz Type=RS41-SGP TxOff=7h23m rdzTTGOsonde
EA1JAY-16S29503572022-12-07 14:16:4143.2766-7.23996354202062Clb=-3.7m/s p=791.9hPa t=0.1C h=94.2% 404.000MHz Type=RS41-SGP TxOff=7h24m rdzTTGOsonde
EA1JAY-15S29503572022-12-07 14:16:2943.2761-7.23977339112109Clb=-3.8m/s p=787.3hPa t=-0.2C h=94.9% 404.000MHz Type=RS41-SGP TxOff=7h24m rdzTTGOsonde
EA1JAY-16S29503572022-12-07 14:16:2043.2759-7.2397930112144Clb=-3.8m/s p=783.7hPa t=-0.4C h=95.0% 404.000MHz Type=RS41-SGP TxOff=7h24m rdzTTGOsonde
EA1JAY-15S29503572022-12-07 14:16:0843.2754-7.2400614222190Clb=-4.1m/s p=779.2hPa t=-0.8C h=95.9% 404.000MHz Type=RS41-SGP TxOff=7h24m rdzTTGOsonde
EA1JAY-16S29503572022-12-07 14:15:5943.2749-7.24014360242226Clb=-4.0m/s p=775.6hPa t=-1.1C h=95.7% 404.000MHz Type=RS41-SGP TxOff=7h24m rdzTTGOsonde
EA1JAY-15S29503572022-12-07 14:15:4743.2743-7.2400822172277Clb=-3.7m/s p=771.1hPa t=-1.1C h=96.3% 404.000MHz Type=RS41-SGP TxOff=7h25m rdzTTGOsonde
EA1JAY-16S29503572022-12-07 14:15:3843.2739-7.2403331222309Clb=-3.9m/s p=767.7hPa t=-1.3C h=95.8% 404.000MHz Type=RS41-SGP TxOff=7h25m rdzTTGOsonde
EA1JAY-15S29503572022-12-07 14:15:2743.2733-7.2408224302358Clb=-3.7m/s p=763.5hPa t=-1.5C h=96.6% 404.000MHz Type=RS41-SGP TxOff=7h25m rdzTTGOsonde
EA1JAY-16S29503572022-12-07 14:15:1743.2725-7.2412221332396Clb=-4.3m/s p=759.9hPa t=-1.8C h=97.0% 404.000MHz Type=RS41-SGP TxOff=7h25m rdzTTGOsonde
EA1JAY-15S29503572022-12-07 14:15:0643.2717-7.2416422372430Clb=-3.6m/s p=756.3hPa t=-2.0C h=98.4% 404.000MHz Type=RS41-SGP TxOff=7h25m rdzTTGOsonde
EA1JAY-16S29503572022-12-07 14:14:5643.2708-7.241928332464Clb=-3.6m/s p=753.0hPa t=-2.2C h=98.7% 404.000MHz Type=RS41-SGP TxOff=7h25m rdzTTGOsonde
EA1JAY-15S29503572022-12-07 14:14:4643.2701-7.2420515262496Clb=-3.4m/s p=750.1hPa t=-2.4C h=98.4% 404.000MHz Type=RS41-SGP TxOff=7h25m rdzTTGOsonde
EA1JAY-16S29503572022-12-07 14:14:3643.2694-7.2423114282525Clb=-2.7m/s p=747.4hPa t=-2.5C h=99.0% 404.000MHz Type=RS41-SGP TxOff=7h25m rdzTTGOsonde
EA1JAY-15S29503572022-12-07 14:14:2543.2687-7.242518262558Clb=-3.1m/s p=744.2hPa t=-2.8C h=99.1% 404.000MHz Type=RS41-SGP TxOff=7h25m rdzTTGOsonde
EA1JAY-16S29503572022-12-07 14:14:1643.268-7.2427410392582Clb=-3.0m/s p=742.0hPa t=-2.9C h=100.9% 404.000MHz Type=RS41-SGP TxOff=7h25m rdzTTGOsonde
EA1JAY-15S29503572022-12-07 14:14:0543.2669-7.24278359352616Clb=-2.9m/s p=738.8hPa t=-3.1C h=100.8% 404.000MHz Type=RS41-SGP TxOff=7h26m rdzTTGOsonde
EA1JAY-16S29503572022-12-07 14:13:5543.2661-7.24276360332646Clb=-3.1m/s p=736.0hPa t=-3.3C h=99.4% 404.000MHz Type=RS41-SGP TxOff=7h26m rdzTTGOsonde
EA1JAY-15S29503572022-12-07 14:13:4443.2652-7.242813332681Clb=-2.9m/s p=732.8hPa t=-3.6C h=99.9% 404.000MHz Type=RS41-SGP TxOff=7h26m rdzTTGOsonde
EA1JAY-16S29503572022-12-07 14:13:3543.2644-7.242899312709Clb=-3.5m/s p=730.1hPa t=-3.9C h=98.1% 404.000MHz Type=RS41-SGP TxOff=7h26m rdzTTGOsonde
EA1JAY-15S29503572022-12-07 14:13:2343.2636-7.2431320282749Clb=-3.4m/s p=726.5hPa t=-4.1C h=99.6% 404.000MHz Type=RS41-SGP TxOff=7h26m rdzTTGOsonde
EA1JAY-16S29503572022-12-07 14:13:1443.263-7.2434626282779Clb=-3.4m/s p=723.7hPa t=-4.3C h=99.8% 404.000MHz Type=RS41-SGP TxOff=7h27m rdzTTGOsonde
EA1JAY-15S29503572022-12-07 14:13:0343.2622-7.2439517372815Clb=-3.1m/s p=720.4hPa t=-4.4C h=100.1% 404.000MHz Type=RS41-SGP TxOff=7h27m rdzTTGOsonde
EA1JAY-16S29503572022-12-07 14:12:5443.2614-7.24412360332845Clb=-3.5m/s p=717.6hPa t=-4.5C h=99.3% 404.000MHz Type=RS41-SGP TxOff=7h27m rdzTTGOsonde
EA1JAY-15S29503572022-12-07 14:12:4243.2607-7.2443829262884Clb=-3.2m/s p=714.1hPa t=-4.7C h=99.4% 404.000MHz Type=RS41-SGP TxOff=7h27m rdzTTGOsonde
EA1JAY-16S29503572022-12-07 14:12:3443.2602-7.2446521312904Clb=-3.0m/s p=711.9hPa t=-4.8C h=97.8% 404.000MHz Type=RS41-SGP TxOff=7h27m rdzTTGOsonde
EA1JAY-15S29503572022-12-07 14:12:2243.2592-7.244878222942Clb=-3.0m/s p=708.6hPa t=-5.0C h=96.6% 404.000MHz Type=RS41-SGP TxOff=7h28m rdzTTGOsonde
EA1JAY-16S29503572022-12-07 14:12:1443.2589-7.2449928172963Clb=-3.6m/s p=706.5hPa t=-5.1C h=91.1% 404.000MHz Type=RS41-SGP TxOff=7h28m rdzTTGOsonde
EA1JAY-15S29503572022-12-07 14:12:0143.2585-7.2453524133011Clb=-3.6m/s p=702.4hPa t=-5.4C h=89.7% 404.000MHz Type=RS41-SGP TxOff=7h28m rdzTTGOsonde
EA1JAY-16S29503572022-12-07 14:11:5343.2582-7.2454616153039Clb=-4.0m/s p=699.9hPa t=-4.2C h=37.7% 404.000MHz Type=RS41-SGP TxOff=7h28m rdzTTGOsonde
EA1JAY-15S29503572022-12-07 14:11:4043.2578-7.24557373089Clb=-3.5m/s p=695.7hPa t=-3.2C h=9.4% 404.000MHz Type=RS41-SGP TxOff=7h29m rdzTTGOsonde
EA1JAY-16S29503572022-12-07 14:11:3243.2577-7.245675593120Clb=-3.2m/s p=693.3hPa t=-3.1C h=11.3% 404.000MHz Type=RS41-SGP TxOff=7h29m rdzTTGOsonde
EA1JAY-15S29503572022-12-07 14:11:1943.2573-7.2459358193163Clb=-3.6m/s p=689.4hPa t=-2.9C h=9.4% 404.000MHz Type=RS41-SGP TxOff=7h29m rdzTTGOsonde
EA1JAY-16S29503572022-12-07 14:11:1143.257-7.24577330173192Clb=-3.7m/s p=686.9hPa t=-3.0C h=9.4% 404.000MHz Type=RS41-SGP TxOff=7h29m rdzTTGOsonde
EA1JAY-15S29503572022-12-07 14:10:5843.2568-7.245684773240Clb=-3.7m/s p=682.6hPa t=-3.2C h=9.9% 404.000MHz Type=RS41-SGP TxOff=7h29m rdzTTGOsonde
EA1JAY-16S29503572022-12-07 14:10:5043.2566-7.2458753113269Clb=-3.4m/s p=679.9hPa t=-3.3C h=10.6% 404.000MHz Type=RS41-SGP TxOff=7h29m rdzTTGOsonde
EA1JAY-15S29503572022-12-07 14:10:3843.2563-7.2462423173313Clb=-3.5m/s p=676.2hPa t=-3.3C h=9.5% 404.000MHz Type=RS41-SGP TxOff=7h30m rdzTTGOsonde
EA1JAY-16S29503572022-12-07 14:10:2943.256-7.2462734593345Clb=-3.8m/s p=673.4hPa t=-3.3C h=8.2% 404.000MHz Type=RS41-SGP TxOff=7h30m rdzTTGOsonde
EA1JAY-15S29503572022-12-07 14:10:1743.256-7.2462812263392Clb=-3.5m/s p=669.7hPa t=-3.6C h=7.5% 404.000MHz Type=RS41-SGP TxOff=7h30m rdzTTGOsonde
EA1JAY-16S29503572022-12-07 14:10:0943.256-7.2464991113417Clb=-3.3m/s p=667.2hPa t=-3.7C h=6.6% 404.000MHz Type=RS41-SGP TxOff=7h30m rdzTTGOsonde
EA1JAY-15S29503572022-12-07 14:09:5643.2558-7.246933473461Clb=-3.6m/s p=663.5hPa t=-3.4C h=4.5% 404.000MHz Type=RS41-SGP TxOff=7h30m rdzTTGOsonde
EA1JAY-16S29503572022-12-07 14:09:4843.2557-7.2469431323490Clb=-3.6m/s p=661.1hPa t=-3.5C h=4.4% 404.000MHz Type=RS41-SGP TxOff=7h30m rdzTTGOsonde
EA1JAY-15S29503572022-12-07 14:09:3543.2558-7.2469613593536Clb=-3.7m/s p=657.2hPa t=-3.8C h=4.6% 404.000MHz Type=RS41-SGP TxOff=7h30m rdzTTGOsonde
EA1JAY-16S29503572022-12-07 14:09:2743.2559-7.247285893567Clb=-3.7m/s p=654.9hPa t=-4.0C h=4.8% 404.000MHz Type=RS41-SGP TxOff=7h30m rdzTTGOsonde
EA1JAY-15S29503572022-12-07 14:09:1543.2557-7.247463393607Clb=-3.7m/s p=651.5hPa t=-4.3C h=4.4% 404.000MHz Type=RS41-SGP TxOff=7h30m rdzTTGOsonde
EA1JAY-16S29503572022-12-07 14:09:0743.2555-7.2475333763639Clb=-3.4m/s p=649.0hPa t=-4.5C h=4.3% 404.000MHz Type=RS41-SGP TxOff=7h31m rdzTTGOsonde
EA1JAY-15S29503572022-12-07 14:08:5543.2555-7.2474717543676Clb=-3.5m/s p=645.7hPa t=-4.8C h=4.7% 404.000MHz Type=RS41-SGP TxOff=7h31m rdzTTGOsonde
EA1JAY-16S29503572022-12-07 14:08:4643.2557-7.2475513793708Clb=-3.6m/s p=643.1hPa t=-5.0C h=5.0% 404.000MHz Type=RS41-SGP TxOff=7h31m rdzTTGOsonde
EA1JAY-15S29503572022-12-07 14:08:3543.2559-7.24782126113745Clb=-3.6m/s p=640.0hPa t=-5.3C h=5.4% 404.000MHz Type=RS41-SGP TxOff=7h31m rdzTTGOsonde
EA1JAY-16S29503572022-12-07 14:08:2543.2559-7.248157893781Clb=-3.8m/s p=637.2hPa t=-5.6C h=5.0% 404.000MHz Type=RS41-SGP TxOff=7h31m rdzTTGOsonde
EA1JAY-15S29503572022-12-07 14:08:1443.2558-7.248344063821Clb=-4.0m/s p=634.0hPa t=-5.7C h=3.0% 404.000MHz Type=RS41-SGP TxOff=7h32m rdzTTGOsonde
EA1JAY-16S29503572022-12-07 14:08:0443.2557-7.248411373857Clb=-3.0m/s p=631.3hPa t=-5.9C h=2.9% 404.000MHz Type=RS41-SGP TxOff=7h32m rdzTTGOsonde
EA1JAY-15S29503572022-12-07 14:07:5343.2556-7.2483732763896Clb=-3.2m/s p=628.2hPa t=-6.1C h=3.2% 404.000MHz Type=RS41-SGP TxOff=7h32m rdzTTGOsonde
EA1JAY-15S29503572022-12-07 14:07:3243.2555-7.2484110873972Clb=-3.6m/s p=622.3hPa t=-6.5C h=4.4% 404.000MHz Type=RS41-SGP TxOff=7h32m rdzTTGOsonde
EA1JAY-16S29503572022-12-07 14:07:2443.2556-7.2485910993997Clb=-3.9m/s p=620.1hPa t=-6.7C h=4.7% 404.000MHz Type=RS41-SGP TxOff=7h33m rdzTTGOsonde
EA1JAY-15S29503572022-12-07 14:07:1243.2557-7.2491896174043Clb=-3.5m/s p=616.7hPa t=-7.0C h=3.7% 404.000MHz Type=RS41-SGP TxOff=7h33m rdzTTGOsonde
EA1JAY-16S29503572022-12-07 14:07:0343.2557-7.2497192204072Clb=-3.6m/s p=614.2hPa t=-7.0C h=2.9% 404.000MHz Type=RS41-SGP TxOff=7h33m rdzTTGOsonde
EA1JAY-15S29503572022-12-07 14:06:5243.2556-7.250674224115Clb=-3.2m/s p=611.1hPa t=-7.3C h=7.2% 404.000MHz Type=RS41-SGP TxOff=7h33m rdzTTGOsonde
EA1JAY-16S29503572022-12-07 14:06:4343.2554-7.2511468194143Clb=-3.2m/s p=608.7hPa t=-7.5C h=11.9% 404.000MHz Type=RS41-SGP TxOff=7h33m rdzTTGOsonde
EA1JAY-15S29503572022-12-07 14:06:3143.2552-7.2519162204184Clb=-2.7m/s p=605.5hPa t=-7.8C h=12.3% 404.000MHz Type=RS41-SGP TxOff=7h34m rdzTTGOsonde
EA1JAY-16S29503572022-12-07 14:06:2343.2551-7.2522770114212Clb=-3.2m/s p=603.2hPa t=-8.1C h=12.8% 404.000MHz Type=RS41-SGP TxOff=7h34m rdzTTGOsonde
EA1JAY-15S29503572022-12-07 14:06:1143.2551-7.2527999174254Clb=-3.5m/s p=599.8hPa t=-8.5C h=13.1% 404.000MHz Type=RS41-SGP TxOff=7h34m rdzTTGOsonde
EA1JAY-16S29503572022-12-07 14:06:0243.2551-7.25333100194287Clb=-3.8m/s p=597.3hPa t=-8.7C h=13.2% 404.000MHz Type=RS41-SGP TxOff=7h34m rdzTTGOsonde
EA1JAY-15S29503572022-12-07 14:05:5043.2552-7.2542187244331Clb=-3.3m/s p=594.0hPa t=-9.0C h=12.7% 404.000MHz Type=RS41-SGP TxOff=7h34m rdzTTGOsonde
EA1JAY-16S29503572022-12-07 14:05:4243.2551-7.2548872244360Clb=-3.3m/s p=591.7hPa t=-9.2C h=13.7% 404.000MHz Type=RS41-SGP TxOff=7h35m rdzTTGOsonde
EA1JAY-15S29503572022-12-07 14:05:3043.2548-7.2556666174401Clb=-3.2m/s p=588.5hPa t=-9.4C h=12.2% 404.000MHz Type=RS41-SGP TxOff=7h35m rdzTTGOsonde
EA1JAY-16S29503572022-12-07 14:05:2143.2547-7.2561281174433Clb=-3.1m/s p=586.1hPa t=-9.5C h=10.8% 404.000MHz Type=RS41-SGP TxOff=7h35m rdzTTGOsonde
EA1JAY-15S29503572022-12-07 14:05:0943.2548-7.2569799264477Clb=-3.8m/s p=582.8hPa t=-9.6C h=11.8% 404.000MHz Type=RS41-SGP TxOff=7h35m rdzTTGOsonde
EA1JAY-16S29503572022-12-07 14:05:0043.2548-7.2578892334511Clb=-3.4m/s p=580.3hPa t=-9.8C h=10.2% 404.000MHz Type=RS41-SGP TxOff=7h35m rdzTTGOsonde
EA1JAY-15S29503572022-12-07 14:04:4943.2547-7.2591472314549Clb=-3.3m/s p=577.4hPa t=-10.1C h=10.1% 404.000MHz Type=RS41-SGP TxOff=7h36m rdzTTGOsonde
EA1JAY-16S29503572022-12-07 14:04:3943.2544-7.260171264585Clb=-3.7m/s p=574.6hPa t=-10.3C h=22.7% 404.000MHz Type=RS41-SGP TxOff=7h36m rdzTTGOsonde
EA1JAY-15S29503572022-12-07 14:04:2943.2544-7.2608896284621Clb=-3.4m/s p=572.0hPa t=-10.6C h=19.4% 404.000MHz Type=RS41-SGP TxOff=7h36m rdzTTGOsonde
EA1JAY-16S29503572022-12-07 14:04:1843.2544-7.2620787334660Clb=-3.3m/s p=569.0hPa t=-10.9C h=29.4% 404.000MHz Type=RS41-SGP TxOff=7h36m rdzTTGOsonde
EA1JAY-15S29503572022-12-07 14:04:0843.2542-7.263271314695Clb=-3.7m/s p=566.3hPa t=-11.2C h=36.2% 404.000MHz Type=RS41-SGP TxOff=7h36m rdzTTGOsonde
EA1JAY-16S29503572022-12-07 14:03:5743.2538-7.264265224739Clb=-3.7m/s p=563.4hPa t=-11.6C h=35.5% 404.000MHz Type=RS41-SGP TxOff=7h36m rdzTTGOsonde
EA1JAY-15S29503572022-12-07 14:03:4843.2537-7.2647187224768Clb=-3.5m/s p=561.1hPa t=-11.9C h=35.7% 404.000MHz Type=RS41-SGP TxOff=7h36m rdzTTGOsonde
EA1JAY-16S29503572022-12-07 14:03:3643.2537-7.2657688304812Clb=-3.8m/s p=557.9hPa t=-12.3C h=35.5% 404.000MHz Type=RS41-SGP TxOff=7h36m rdzTTGOsonde
EA1JAY-15S29503572022-12-07 14:03:2843.2535-7.2665969314840Clb=-3.6m/s p=555.7hPa t=-12.6C h=35.6% 404.000MHz Type=RS41-SGP TxOff=7h36m rdzTTGOsonde
EA1JAY-16S29503572022-12-07 14:03:1643.2531-7.2675267194885Clb=-3.8m/s p=552.5hPa t=-13.0C h=36.7% 404.000MHz Type=RS41-SGP TxOff=7h36m rdzTTGOsonde
EA1JAY-15S29503572022-12-07 14:03:0743.2531-7.2681993264923Clb=-3.7m/s p=550.1hPa t=-13.2C h=36.5% 404.000MHz Type=RS41-SGP TxOff=7h37m rdzTTGOsonde
EA1JAY-16S29503572022-12-07 14:02:5543.2531-7.2692790334965Clb=-3.8m/s p=546.7hPa t=-13.7C h=37.7% 404.000MHz Type=RS41-SGP TxOff=7h37m rdzTTGOsonde
EA1JAY-15S29503572022-12-07 14:02:4743.253-7.2703478354998Clb=-3.6m/s p=544.6hPa t=-13.9C h=35.4% 404.000MHz Type=RS41-SGP TxOff=7h37m rdzTTGOsonde
EA1JAY-16S29503572022-12-07 14:02:3443.2528-7.2715285245041Clb=-3.7m/s p=541.3hPa t=-14.1C h=31.2% 404.000MHz Type=RS41-SGP TxOff=7h37m rdzTTGOsonde
EA1JAY-15S29503572022-12-07 14:02:2643.2528-7.2722100265071Clb=-4.0m/s p=539.2hPa t=-14.3C h=32.4% 404.000MHz Type=RS41-SGP TxOff=7h37m rdzTTGOsonde
EA1JAY-16S29503572022-12-07 14:02:1443.253-7.27335104315117Clb=-3.6m/s p=535.9hPa t=-14.7C h=34.5% 404.000MHz Type=RS41-SGP TxOff=7h38m rdzTTGOsonde
EA1JAY-15S29503572022-12-07 14:02:0543.2531-7.2743995375150Clb=-3.3m/s p=533.6hPa t=-14.9C h=33.2% 404.000MHz Type=RS41-SGP TxOff=7h38m rdzTTGOsonde
EA1JAY-16S29503572022-12-07 14:01:5443.2531-7.2759782375196Clb=-4.1m/s p=530.4hPa t=-15.4C h=36.5% 404.000MHz Type=RS41-SGP TxOff=7h38m rdzTTGOsonde
EA1JAY-15S29503572022-12-07 14:01:4543.253-7.2768582305227Clb=-3.8m/s p=528.3hPa t=-15.6C h=46.3% 404.000MHz Type=RS41-SGP TxOff=7h38m rdzTTGOsonde
EA1JAY-16S29503572022-12-07 14:01:3343.253-7.2780997335275Clb=-3.8m/s p=525.0hPa t=-16.0C h=48.6% 404.000MHz Type=RS41-SGP TxOff=7h38m rdzTTGOsonde
EA1JAY-15S29503572022-12-07 14:01:2443.253-7.2792391415310Clb=-3.7m/s p=522.6hPa t=-16.2C h=45.9% 404.000MHz Type=RS41-SGP TxOff=7h39m rdzTTGOsonde
EA1JAY-16S29503572022-12-07 14:01:1243.2528-7.2810771415361Clb=-4.0m/s p=519.3hPa t=-16.6C h=48.3% 404.000MHz Type=RS41-SGP TxOff=7h39m rdzTTGOsonde
EA1JAY-15S29503572022-12-07 14:01:0343.2525-7.2820569355391Clb=-3.6m/s p=516.8hPa t=-16.8C h=47.8% 404.000MHz Type=RS41-SGP TxOff=7h39m rdzTTGOsonde
EA1JAY-16S29503572022-12-07 14:00:5243.2522-7.2832973305438Clb=-4.1m/s p=513.9hPa t=-17.2C h=48.4% 404.000MHz Type=RS41-SGP TxOff=7h39m rdzTTGOsonde
EA1JAY-15S29503572022-12-07 14:00:4343.252-7.2840882305470Clb=-3.9m/s p=511.5hPa t=-17.4C h=47.7% 404.000MHz Type=RS41-SGP TxOff=7h39m rdzTTGOsonde
EA1JAY-16S29503572022-12-07 14:00:3143.2519-7.285276285518Clb=-4.0m/s p=508.2hPa t=-17.9C h=47.0% 404.000MHz Type=RS41-SGP TxOff=7h40m rdzTTGOsonde
EA1JAY-15S29503572022-12-07 14:00:2343.2517-7.2859272285550Clb=-3.7m/s p=506.1hPa t=-18.1C h=43.9% 404.000MHz Type=RS41-SGP TxOff=7h40m rdzTTGOsonde
EA1JAY-16S29503572022-12-07 14:00:1443.2515-7.2870781265602Clb=-3.9m/s p=502.6hPa t=-18.6C h=41.6% 404.000MHz Type=RS41-SGP TxOff=7h40m rdzTTGOsonde
EA1JAY-15S29503572022-12-07 14:00:0743.2514-7.2878582265637Clb=-3.9m/s p=500.5hPa t=-18.8C h=41.9% 404.000MHz Type=RS41-SGP TxOff=7h40m rdzTTGOsonde
EA1JAY-16S29503572022-12-07 13:59:4943.2513-7.2888989285685Clb=-3.7m/s p=497.0hPa t=-19.2C h=42.7% 404.000MHz Type=RS41-SGP TxOff=7h40m rdzTTGOsonde
EA1JAY-15S29503572022-12-07 13:59:4143.2513-7.2896792305717Clb=-4.1m/s p=494.9hPa t=-19.5C h=42.6% 404.000MHz Type=RS41-SGP TxOff=7h41m rdzTTGOsonde
EA1JAY-16S29503572022-12-07 13:59:2843.2513-7.2909495315769Clb=-4.2m/s p=491.3hPa t=-20.0C h=45.1% 404.000MHz Type=RS41-SGP TxOff=7h41m rdzTTGOsonde
EA1JAY-15S29503572022-12-07 13:59:2043.2513-7.2918395335801Clb=-3.7m/s p=489.2hPa t=-20.3C h=46.5% 404.000MHz Type=RS41-SGP TxOff=7h41m rdzTTGOsonde
EA1JAY-16S29503572022-12-07 13:59:0843.2514-7.2931996355849Clb=-3.9m/s p=486.1hPa t=-20.8C h=48.4% 404.000MHz Type=RS41-SGP TxOff=7h41m rdzTTGOsonde
EA1JAY-15S29503572022-12-07 13:58:5943.2515-7.2942796355884Clb=-4.1m/s p=483.7hPa t=-21.1C h=49.2% 404.000MHz Type=RS41-SGP TxOff=7h41m rdzTTGOsonde
EA1JAY-16S29503572022-12-07 13:58:4743.2515-7.2958891395936Clb=-4.0m/s p=480.7hPa t=-21.5C h=46.1% 404.000MHz Type=RS41-SGP TxOff=7h42m rdzTTGOsonde
EA1JAY-15S29503572022-12-07 13:58:3843.2515-7.2969589395968Clb=-3.9m/s p=478.3hPa t=-21.7C h=43.7% 404.000MHz Type=RS41-SGP TxOff=7h42m rdzTTGOsonde
EA1JAY-16S29503572022-12-07 13:58:2743.2514-7.2984482416011Clb=-3.9m/s p=475.5hPa t=-22.0C h=40.1% 404.000MHz Type=RS41-SGP TxOff=7h42m rdzTTGOsonde
EA1JAY-15S29503572022-12-07 13:58:1343.2511-7.3003178416066Clb=-3.9m/s p=472.0hPa t=-22.5C h=40.5% 404.000MHz Type=RS41-SGP TxOff=7h42m rdzTTGOsonde
EA1JAY-16S29503572022-12-07 13:58:0643.2509-7.3012172376094Clb=-3.9m/s p=470.2hPa t=-22.7C h=37.6% 404.000MHz Type=RS41-SGP TxOff=7h42m rdzTTGOsonde
EA1JAY-15S29503572022-12-07 13:57:5343.2506-7.3027574336145Clb=-4.1m/s p=466.9hPa t=-23.1C h=39.4% 404.000MHz Type=RS41-SGP TxOff=7h42m rdzTTGOsonde
EA1JAY-16S29503572022-12-07 13:57:4543.2504-7.303675336176Clb=-3.8m/s p=465.0hPa t=-23.2C h=37.0% 404.000MHz Type=RS41-SGP TxOff=7h42m rdzTTGOsonde
EA1JAY-15S29503572022-12-07 13:57:3243.2501-7.3051882306234Clb=-3.8m/s p=461.7hPa t=-23.5C h=34.8% 404.000MHz Type=RS41-SGP TxOff=7h42m rdzTTGOsonde
EA1JAY-16S29503572022-12-07 13:57:2543.2501-7.3056885306254Clb=-3.8m/s p=460.1hPa t=-23.7C h=34.5% 404.000MHz Type=RS41-SGP TxOff=7h42m rdzTTGOsonde
EA1JAY-15S29503572022-12-07 13:57:1143.2501-7.30709100316308Clb=-3.8m/s p=456.6hPa t=-24.2C h=39.7% 404.000MHz Type=RS41-SGP rdzTTGOsonde
EA1JAY-16S29503572022-12-07 13:57:0443.2502-7.30786101356335Clb=-4.0m/s p=454.9hPa t=-24.4C h=37.6% 404.000MHz Type=RS41-SGP TxOff=7h43m rdzTTGOsonde
EA1JAY-15S29503572022-12-07 13:56:5143.2504-7.3094196416386Clb=-3.8m/s p=451.7hPa t=-24.8C h=31.6% 404.000MHz Type=RS41-SGP rdzTTGOsonde
EA1JAY-16S29503572022-12-07 13:56:4443.2505-7.3103698396414Clb=-4.0m/s p=450.0hPa t=-25.0C h=30.9% 404.000MHz Type=RS41-SGP TxOff=7h43m rdzTTGOsonde
EA1JAY-15S29503572022-12-07 13:56:3043.2505-7.3122992416468Clb=-3.8m/s p=446.5hPa t=-25.4C h=28.5% 404.000MHz Type=RS41-SGP rdzTTGOsonde
EA1JAY-16S29503572022-12-07 13:56:2443.2506-7.3132499376496Clb=-3.9m/s p=444.9hPa t=-25.6C h=28.6% 404.000MHz Type=RS41-SGP TxOff=7h43m rdzTTGOsonde
EA1JAY-15S29503572022-12-07 13:56:0943.2508-7.31508100416552Clb=-4.3m/s p=441.5hPa t=-26.1C h=31.9% 404.000MHz Type=RS41-SGP TxOff=7h44m rdzTTGOsonde
EA1JAY-16S29503572022-12-07 13:56:0243.2509-7.3160695436580Clb=-3.6m/s p=439.8hPa t=-26.3C h=32.6% 404.000MHz Type=RS41-SGP TxOff=7h44m rdzTTGOsonde
EA1JAY-15S29503572022-12-07 13:55:4843.251-7.3180194436637Clb=-3.7m/s p=436.4hPa t=-26.9C h=33.1% 404.000MHz Type=RS41-SGP TxOff=7h44m rdzTTGOsonde
EA1JAY-16S29503572022-12-07 13:55:4243.251-7.3190193416666Clb=-3.8m/s p=434.9hPa t=-27.1C h=33.5% 404.000MHz Type=RS41-SGP TxOff=7h44m rdzTTGOsonde
EA1JAY-15S29503572022-12-07 13:55:2743.251-7.320985396723Clb=-3.8m/s p=431.2hPa t=-27.7C h=34.7% 404.000MHz Type=RS41-SGP rdzTTGOsonde
EA1JAY-16S29503572022-12-07 13:55:2143.251-7.3217391436747Clb=-4.1m/s p=429.7hPa t=-27.9C h=34.7% 404.000MHz Type=RS41-SGP TxOff=7h45m rdzTTGOsonde
EA1JAY-15S29503572022-12-07 13:55:0643.251-7.3241992486813Clb=-3.8m/s p=425.8hPa t=-28.4C h=35.0% 404.000MHz Type=RS41-SGP rdzTTGOsonde
EA1JAY-16S29503572022-12-07 13:55:0043.251-7.3250294506834Clb=-4.5m/s p=424.5hPa t=-28.4C h=33.2% 404.000MHz Type=RS41-SGP TxOff=7h45m rdzTTGOsonde
EA1JAY-15S29503572022-12-07 13:54:4543.2511-7.3277392566896Clb=-4.2m/s p=420.9hPa t=-28.7C h=28.3% 404.000MHz Type=RS41-SGP rdzTTGOsonde
EA1JAY-16S29503572022-12-07 13:54:4043.2511-7.3286990576917Clb=-4.1m/s p=419.7hPa t=-28.8C h=26.2% 404.000MHz Type=RS41-SGP TxOff=7h46m rdzTTGOsonde
EB4FMT-14S29503572022-12-07 13:54:3043.251-7.331687636975Clb=-4.2m/s t=-29.0C h=23.6% p=416.2hPa 404.001 MHz Type=RS41-SGP ser=S2950357 Radiosonde auto_rx v1.5.9
EA1JAY-15S29503572022-12-07 13:54:2543.251-7.3318287656979Clb=-4.2m/s p=416.0hPa t=-29.0C h=23.7% 404.000MHz Type=RS41-SGP TxOff=7h46m rdzTTGOsonde
EA1JAY-16S29503572022-12-07 13:54:1943.2509-7.3331484657004Clb=-4.1m/s p=414.6hPa t=-29.1C h=23.9% 404.000MHz Type=RS41-SGP TxOff=7h46m rdzTTGOsonde
EA1JAY-15S29503572022-12-07 13:54:0543.2507-7.3364585727062Clb=-3.9m/s p=411.3hPa t=-29.1C h=22.6% 404.000MHz Type=RS41-SGP TxOff=7h46m rdzTTGOsonde
EA1JAY-16S29503572022-12-07 13:53:5843.2505-7.3381786727088Clb=-3.9m/s p=409.7hPa t=-29.1C h=21.3% 404.000MHz Type=RS41-SGP TxOff=7h46m rdzTTGOsonde
EA1JAY-15S29503572022-12-07 13:53:4443.2503-7.3416387727143Clb=-3.9m/s p=406.6hPa t=-29.0C h=23.4% 404.000MHz Type=RS41-SGP TxOff=7h47m rdzTTGOsonde
EA1JAY-16S29503572022-12-07 13:53:3843.2502-7.3431287727166Clb=-4.1m/s p=405.2hPa t=-29.2C h=23.6% 404.000MHz Type=RS41-SGP TxOff=7h47m rdzTTGOsonde
EB4FMT-14S29503572022-12-07 13:53:3043.25-7.3460984727214Clb=-3.9m/s t=-29.6C h=23.8% p=402.6hPa 404.001 MHz Type=RS41-SGP ser=S2950357 Radiosonde auto_rx v1.5.9
EA1JAY-15S29503572022-12-07 13:53:2443.25-7.3465984747222Clb=-3.9m/s p=402.1hPa t=-29.7C h=23.7% 404.000MHz Type=RS41-SGP TxOff=7h47m rdzTTGOsonde
EA1JAY-16S29503572022-12-07 13:53:1843.2498-7.3480380697245Clb=-4.0m/s p=400.7hPa t=-30.0C h=24.1% 404.000MHz Type=RS41-SGP TxOff=7h47m rdzTTGOsonde
EA1JAY-15S29503572022-12-07 13:53:0443.2494-7.351182637301Clb=-4.0m/s p=397.7hPa t=-30.5C h=23.4% 404.000MHz Type=RS41-SGP TxOff=7h47m rdzTTGOsonde
EA1JAY-16S29503572022-12-07 13:52:5743.2493-7.3525785597328Clb=-4.1m/s p=396.0hPa t=-30.7C h=24.0% 404.000MHz Type=RS41-SGP TxOff=7h47m rdzTTGOsonde
EA1JAY-15S29503572022-12-07 13:52:4443.2492-7.3552191597381Clb=-4.2m/s p=393.2hPa t=-31.2C h=24.7% 404.000MHz Type=RS41-SGP TxOff=7h47m rdzTTGOsonde
EA1JAY-16S29503572022-12-07 13:52:3743.2493-7.356795657410Clb=-4.1m/s p=391.5hPa t=-31.4C h=25.3% 404.000MHz Type=RS41-SGP TxOff=7h47m rdzTTGOsonde
EA1JAY-15S29503572022-12-07 13:52:2343.2494-7.3599296677466Clb=-3.9m/s p=388.4hPa t=-31.9C h=28.2% 404.000MHz Type=RS41-SGP TxOff=7h47m rdzTTGOsonde
EA1JAY-16S29503572022-12-07 13:52:1643.2495-7.3616293727495Clb=-4.5m/s p=386.9hPa t=-32.2C h=28.6% 404.000MHz Type=RS41-SGP TxOff=7h47m rdzTTGOsonde
EA1JAY-15S29503572022-12-07 13:52:0143.2495-7.3654284747556Clb=-4.0m/s p=383.5hPa t=-32.8C h=30.3% 404.000MHz Type=RS41-SGP rdzTTGOsonde
EA1JAY-16S29503572022-12-07 13:51:5643.2493-7.3666282697575Clb=-4.2m/s p=382.4hPa t=-33.0C h=30.8% 404.000MHz Type=RS41-SGP TxOff=7h48m rdzTTGOsonde
EA1JAY-15S29503572022-12-07 13:51:3743.2489-7.3706686597660Clb=-4.4m/s p=377.9hPa t=-33.8C h=33.3% 404.000MHz Type=RS41-SGP rdzTTGOsonde
EA1JAY-16S29503572022-12-07 13:51:3643.2489-7.3708686597664Clb=-4.7m/s p=377.7hPa t=-33.8C h=33.5% 404.000MHz Type=RS41-SGP TxOff=7h48m rdzTTGOsonde
EB4FMT-14S29503572022-12-07 13:51:3043.2487-7.372981617708Clb=-3.8m/s t=-34.3C h=35.0% p=375.4hPa 404.001 MHz Type=RS41-SGP ser=S2950357 Radiosonde auto_rx v1.5.9
EA1JAY-15S29503572022-12-07 13:51:1643.2485-7.3750481617754Clb=-4.7m/s p=373.0hPa t=-34.7C h=36.3% 404.000MHz Type=RS41-SGP rdzTTGOsonde
EB4FMT-14S29503572022-12-07 13:51:0043.2483-7.3788388617834Clb=-4.2m/s t=-35.4C h=38.9% p=368.8hPa 404.001 MHz Type=RS41-SGP ser=S2950357 Radiosonde auto_rx v1.5.9
EA1JAY-15S29503572022-12-07 13:50:5643.2483-7.3792590637842Clb=-4.0m/s p=368.3hPa t=-35.5C h=39.2% 404.000MHz Type=RS41-SGP rdzTTGOsonde
EA1JAY-16S29503572022-12-07 13:50:5543.2483-7.3794790637846Clb=-4.1m/s p=368.1hPa t=-35.6C h=39.4% 404.000MHz Type=RS41-SGP TxOff=7h49m rdzTTGOsonde
EA1JAY-15S29503572022-12-07 13:50:3543.2483-7.3839291657926Clb=-4.4m/s p=363.8hPa t=-36.4C h=42.8% 404.000MHz Type=RS41-SGP rdzTTGOsonde
EB4FMT-14S29503572022-12-07 13:50:3043.2483-7.3854489617955Clb=-4.3m/s t=-36.7C h=43.7% p=362.2hPa 404.001 MHz Type=RS41-SGP ser=S2950357 Radiosonde auto_rx v1.5.9
EA1JAY-15S29503572022-12-07 13:50:1443.2482-7.3884484618014Clb=-4.4m/s p=359.2hPa t=-37.2C h=46.2% 404.000MHz Type=RS41-SGP TxOff=7h50m rdzTTGOsonde
EA1JAY-16S29503572022-12-07 13:50:1343.2482-7.3886684618018Clb=-4.1m/s p=359.0hPa t=-37.3C h=46.4% 404.000MHz Type=RS41-SGP TxOff=7h50m rdzTTGOsonde
EB4FMT-14S29503572022-12-07 13:50:0043.2479-7.3918184638081Clb=-3.9m/s t=-37.9C h=50.2% p=355.7hPa 404.001 MHz Type=RS41-SGP ser=S2950357 Radiosonde auto_rx v1.5.9
EA1JAY-15S29503572022-12-07 13:49:5343.2478-7.3928884638102Clb=-4.3m/s p=354.6hPa t=-38.1C h=51.9% 404.000MHz Type=RS41-SGP TxOff=7h50m rdzTTGOsonde
EA1JAY-16S29503572022-12-07 13:49:5243.2478-7.393184638106Clb=-4.0m/s p=354.4hPa t=-38.1C h=52.2% 404.000MHz Type=RS41-SGP TxOff=7h50m rdzTTGOsonde
EA1JAY-15S29503572022-12-07 13:49:3343.2475-7.3971988638187Clb=-4.1m/s p=350.2hPa t=-38.7C h=48.3% 404.000MHz Type=RS41-SGP TxOff=7h51m rdzTTGOsonde
EA1JAY-16S29503572022-12-07 13:49:3243.2475-7.3976290658196Clb=-4.4m/s p=350.0hPa t=-38.7C h=48.0% 404.000MHz Type=RS41-SGP TxOff=7h51m rdzTTGOsonde
EB4FMT-14S29503572022-12-07 13:49:3043.2475-7.3982990658209Clb=-4.5m/s t=-38.8C h=46.7% p=349.2hPa 404.001 MHz Type=RS41-SGP ser=S2950357 Radiosonde auto_rx v1.5.9
EA1JAY-15S29503572022-12-07 13:49:1243.2476-7.4019794678278Clb=-4.0m/s p=345.7hPa t=-39.5C h=46.4% 404.000MHz Type=RS41-SGP TxOff=7h51m rdzTTGOsonde
EA1JAY-16S29503572022-12-07 13:49:1143.2476-7.402292678282Clb=-4.0m/s p=345.4hPa t=-39.5C h=46.0% 404.000MHz Type=RS41-SGP TxOff=7h51m rdzTTGOsonde
EB4FMT-14S29503572022-12-07 13:49:0043.2477-7.4050391618335Clb=-4.2m/s t=-40.0C h=37.4% p=342.7hPa 404.001 MHz Type=RS41-SGP ser=S2950357 Radiosonde auto_rx v1.5.9
EA1JAY-15S29503572022-12-07 13:48:5143.2477-7.4065394638366Clb=-4.1m/s p=341.2hPa t=-40.3C h=33.1% 404.000MHz Type=RS41-SGP TxOff=7h51m rdzTTGOsonde
EA1JAY-16S29503572022-12-07 13:48:3043.248-7.4111499698456Clb=-4.6m/s p=336.7hPa t=-41.0C h=28.1% 404.000MHz Type=RS41-SGP TxOff=7h52m rdzTTGOsonde
EA1JAY-15S29503572022-12-07 13:48:1043.2485-7.4159597708541Clb=-4.2m/s p=332.5hPa t=-41.8C h=29.6% 404.000MHz Type=RS41-SGP rdzTTGOsonde
EA1JAY-16S29503572022-12-07 13:48:0943.2485-7.4161998708545Clb=-4.3m/s p=332.3hPa t=-41.9C h=29.8% 404.000MHz Type=RS41-SGP TxOff=7h52m rdzTTGOsonde
EB4FMT-14S29503572022-12-07 13:48:0043.2487-7.4188396708592Clb=-4.6m/s t=-42.3C h=30.9% p=330.0hPa 404.001 MHz Type=RS41-SGP ser=S2950357 Radiosonde auto_rx v1.5.9
EA1JAY-16S29503572022-12-07 13:47:4943.2489-7.4210397748631Clb=-4.7m/s p=328.1hPa t=-42.7C h=31.8% 404.000MHz Type=RS41-SGP TxOff=7h53m rdzTTGOsonde
EA1JAY-15S29503572022-12-07 13:47:4343.249-7.4225597768658Clb=-4.7m/s p=326.8hPa t=-42.9C h=32.4% 404.000MHz Type=RS41-SGP TxOff=7h53m rdzTTGOsonde
EA1JAY-16S29503572022-12-07 13:47:2943.2493-7.4260298708720Clb=-4.6m/s p=323.7hPa t=-43.5C h=34.1% 404.000MHz Type=RS41-SGP TxOff=7h53m rdzTTGOsonde
EA1JAY-15S29503572022-12-07 13:47:2243.2494-7.4277498728751Clb=-5.0m/s p=322.3hPa t=-43.8C h=35.2% 404.000MHz Type=RS41-SGP TxOff=7h53m rdzTTGOsonde
EA1JAY-16S29503572022-12-07 13:47:0843.2497-7.4311100708817Clb=-4.8m/s p=319.2hPa t=-44.5C h=37.8% 404.000MHz Type=RS41-SGP TxOff=7h53m rdzTTGOsonde
EA1JAY-15S29503572022-12-07 13:47:0043.2499-7.4329498678853Clb=-4.7m/s p=317.5hPa t=-44.8C h=38.4% 404.000MHz Type=RS41-SGP rdzTTGOsonde
EA1JAY-16S29503572022-12-07 13:46:4843.2501-7.435696658907Clb=-4.9m/s p=314.8hPa t=-45.3C h=37.6% 404.000MHz Type=RS41-SGP TxOff=7h53m rdzTTGOsonde
EA1JAY-15S29503572022-12-07 13:46:4043.2502-7.4373999678943Clb=-4.5m/s p=313.2hPa t=-45.6C h=36.8% 404.000MHz Type=RS41-SGP rdzTTGOsonde
EB4FMT-14S29503572022-12-07 13:46:3043.2505-7.4400599658998Clb=-4.6m/s t=-46.1C h=36.6% p=310.6hPa 404.001 MHz Type=RS41-SGP ser=S2950357 Radiosonde auto_rx v1.5.9
EA1JAY-16S29503572022-12-07 13:46:2743.2505-7.44027102679003Clb=-4.9m/s p=310.4hPa t=-46.1C h=36.6% 404.000MHz Type=RS41-SGP TxOff=7h53m rdzTTGOsonde
EA1JAY-15S29503572022-12-07 13:46:1943.2508-7.44213104729040Clb=-4.6m/s p=308.7hPa t=-46.4C h=36.1% 404.000MHz Type=RS41-SGP rdzTTGOsonde
EA1JAY-16S29503572022-12-07 13:46:0743.2514-7.4453102709100Clb=-4.3m/s p=306.2hPa t=-46.9C h=34.5% 404.000MHz Type=RS41-SGP TxOff=7h54m rdzTTGOsonde
EB4FMT-14S29503572022-12-07 13:46:0043.2517-7.44722103749137Clb=-4.7m/s t=-47.3C h=32.4% p=304.2hPa 404.001 MHz Type=RS41-SGP ser=S2950357 Radiosonde auto_rx v1.5.9
EA1JAY-15S29503572022-12-07 13:45:5843.2517-7.44722104769137Clb=-4.7m/s p=304.2hPa t=-47.3C h=32.4% 404.000MHz Type=RS41-SGP rdzTTGOsonde
EA1JAY-16S29503572022-12-07 13:45:4643.2522-7.45036104819192Clb=-4.1m/s p=301.7hPa t=-47.7C h=31.5% 404.000MHz Type=RS41-SGP TxOff=7h54m rdzTTGOsonde
EA1JAY-15S29503572022-12-07 13:45:3843.2526-7.45253103809227Clb=-4.9m/s p=300.0hPa t=-48.0C h=32.4% 404.000MHz Type=RS41-SGP rdzTTGOsonde
EB4FMT-14S29503572022-12-07 13:45:3043.253-7.45511104809273Clb=-5.0m/s t=-48.4C h=34.0% p=298.0hPa 404.001 MHz Type=RS41-SGP ser=S2950357 Radiosonde auto_rx v1.5.9
EA1JAY-16S29503572022-12-07 13:45:2643.2531-7.45564104819283Clb=-4.8m/s p=297.6hPa t=-48.5C h=34.5% 404.000MHz Type=RS41-SGP TxOff=7h54m rdzTTGOsonde
EA1JAY-15S29503572022-12-07 13:45:1743.2535-7.4582399879324Clb=-4.8m/s p=295.7hPa t=-48.9C h=35.9% 404.000MHz Type=RS41-SGP rdzTTGOsonde
EA1JAY-16S29503572022-12-07 13:45:0543.2537-7.4617993879383Clb=-4.7m/s p=293.1hPa t=-49.5C h=39.3% 404.000MHz Type=RS41-SGP TxOff=7h55m rdzTTGOsonde
EB4FMT-14S29503572022-12-07 13:45:0043.2537-7.4637990809416Clb=-4.8m/s t=-49.8C h=40.7% p=291.6hPa 404.001 MHz Type=RS41-SGP ser=S2950357 Radiosonde auto_rx v1.5.9
EA1JAY-15S29503572022-12-07 13:44:5543.2537-7.464690789431Clb=-5.0m/s p=290.9hPa t=-49.9C h=41.3% 404.000MHz Type=RS41-SGP rdzTTGOsonde
EA1JAY-16S29503572022-12-07 13:44:4443.2538-7.46727101709486Clb=-5.0m/s p=288.5hPa t=-50.5C h=44.2% 404.000MHz Type=RS41-SGP TxOff=7h55m rdzTTGOsonde
EA1JAY-15S29503572022-12-07 13:44:3543.2542-7.46969101879529Clb=-4.8m/s p=286.6hPa t=-50.9C h=46.7% 404.000MHz Type=RS41-SGP rdzTTGOsonde
EB4FMT-14S29503572022-12-07 13:44:3043.2544-7.4717397879562Clb=-4.7m/s t=-51.2C h=48.3% p=285.1hPa 404.001 MHz Type=RS41-SGP ser=S2950357 Radiosonde auto_rx v1.5.9
EA1JAY-16S29503572022-12-07 13:44:2443.2545-7.4729294899582Clb=-4.6m/s p=284.3hPa t=-51.4C h=48.9% 404.000MHz Type=RS41-SGP TxOff=7h56m rdzTTGOsonde
EA1JAY-15S29503572022-12-07 13:44:0643.2546-7.478489879670Clb=-4.9m/s p=280.4hPa t=-52.2C h=51.5% 404.000MHz Type=RS41-SGP TxOff=7h56m rdzTTGOsonde
EA1JAY-16S29503572022-12-07 13:44:0343.2546-7.4792790819685Clb=-4.8m/s p=279.8hPa t=-52.3C h=52.1% 404.000MHz Type=RS41-SGP TxOff=7h56m rdzTTGOsonde
EB4FMT-14S29503572022-12-07 13:44:0043.2546-7.4805991769709Clb=-4.9m/s t=-52.6C h=52.7% p=278.7hPa 404.001 MHz Type=RS41-SGP ser=S2950357 Radiosonde auto_rx v1.5.9
EA1JAY-15S29503572022-12-07 13:43:4543.2545-7.4840690819774Clb=-5.3m/s p=276.0hPa t=-53.2C h=55.3% 404.000MHz Type=RS41-SGP TxOff=7h56m rdzTTGOsonde
EA1JAY-16S29503572022-12-07 13:43:4243.2545-7.484990819790Clb=-5.6m/s p=275.3hPa t=-53.3C h=55.9% 404.000MHz Type=RS41-SGP TxOff=7h56m rdzTTGOsonde
EB4FMT-14S29503572022-12-07 13:43:3043.2544-7.4887990789866Clb=-5.8m/s t=-54.0C h=58.7% p=272.1hPa 404.001 MHz Type=RS41-SGP ser=S2950357 Radiosonde auto_rx v1.5.9
EA1JAY-15S29503572022-12-07 13:43:2443.2545-7.4898694789888Clb=-5.7m/s p=271.2hPa t=-54.2C h=59.7% 404.000MHz Type=RS41-SGP TxOff=7h57m rdzTTGOsonde
EA1JAY-16S29503572022-12-07 13:43:2143.2545-7.4906697819905Clb=-5.5m/s p=270.5hPa t=-54.3C h=60.5% 404.000MHz Type=RS41-SGP TxOff=7h57m rdzTTGOsonde
EA1JAY-15S29503572022-12-07 13:43:0343.2549-7.4962597859999Clb=-5.5m/s p=266.5hPa t=-55.1C h=60.1% 404.000MHz Type=RS41-SGP TxOff=7h57m rdzTTGOsonde
EA1JAY-16S29503572022-12-07 13:43:0143.2549-7.49684978910009Clb=-5.2m/s p=266.0hPa t=-55.2C h=60.3% 404.000MHz Type=RS41-SGP TxOff=7h57m rdzTTGOsonde
EB4FMT-14S29503572022-12-07 13:43:0043.255-7.4978939410025Clb=-5.3m/s t=-55.4C h=59.6% p=265.4hPa 404.001 MHz Type=RS41-SGP ser=S2950357 Radiosonde auto_rx v1.5.9
EA1JAY-15S29503572022-12-07 13:42:4243.2549-7.50321849610111Clb=-5.3m/s p=261.8hPa t=-56.2C h=52.8% 404.000MHz Type=RS41-SGP rdzTTGOsonde
EA1JAY-16S29503572022-12-07 13:42:4143.2549-7.50354849410116Clb=-5.4m/s p=261.6hPa t=-56.3C h=52.5% 404.000MHz Type=RS41-SGP TxOff=7h58m rdzTTGOsonde
EB4FMT-14S29503572022-12-07 13:42:3043.2546-7.50737918310187Clb=-5.4m/s t=-56.7C h=51.9% p=258.7hPa 404.001 MHz Type=RS41-SGP ser=S2950357 Radiosonde auto_rx v1.5.9
EA1JAY-16S29503572022-12-07 13:42:2043.2547-7.50983969410231Clb=-5.5m/s p=256.9hPa t=-57.0C h=50.5% 404.000MHz Type=RS41-SGP TxOff=7h58m rdzTTGOsonde
EA1JAY-15S29503572022-12-07 13:42:1843.2548-7.51048979610242Clb=-5.4m/s p=256.4hPa t=-57.0C h=50.2% 404.000MHz Type=RS41-SGP rdzTTGOsonde
EA1JAY-16S29503572022-12-07 13:41:5943.2549-7.517328610610346Clb=-5.6m/s p=252.2hPa t=-57.8C h=47.0% 404.000MHz Type=RS41-SGP TxOff=7h58m rdzTTGOsonde
EA1JAY-15S29503572022-12-07 13:41:5743.2549-7.518058510610357Clb=-5.4m/s p=251.8hPa t=-57.9C h=47.1% 404.000MHz Type=RS41-SGP rdzTTGOsonde
EA1JAY-16S29503572022-12-07 13:41:3943.2544-7.52437869610455Clb=-5.4m/s p=247.9hPa t=-58.6C h=45.1% 404.000MHz Type=RS41-SGP TxOff=7h59m rdzTTGOsonde
EA1JAY-15S29503572022-12-07 13:41:3043.2543-7.52731919310502Clb=-5.5m/s p=246.1hPa t=-58.9C h=40.9% 404.000MHz Type=RS41-SGP TxOff=7h59m rdzTTGOsonde
EA1JAY-16S29503572022-12-07 13:41:1843.2544-7.53104969110571Clb=-5.5m/s p=243.4hPa t=-58.7C h=37.4% 404.000MHz Type=RS41-SGP TxOff=7h59m rdzTTGOsonde
EA1JAY-15S29503572022-12-07 13:41:1043.2546-7.533649610210613Clb=-5.4m/s p=241.7hPa t=-58.3C h=35.8% 404.000MHz Type=RS41-SGP TxOff=7h59m rdzTTGOsonde
EB4FMT-14S29503572022-12-07 13:41:0043.2546-7.53759858310679Clb=-5.3m/s t=-58.3C h=36.5% p=239.2hPa 404.001 MHz Type=RS41-SGP ser=S2950357 Radiosonde auto_rx v1.5.9
EA1JAY-16S29503572022-12-07 13:40:5843.2546-7.53759868310679Clb=-5.3m/s p=239.2hPa t=-58.3C h=36.5% 404.000MHz Type=RS41-SGP TxOff=7h59m rdzTTGOsonde
EA1JAY-15S29503572022-12-07 13:40:4943.2545-7.53999917410729Clb=-5.5m/s p=237.3hPa t=-58.6C h=37.2% 404.000MHz Type=RS41-SGP rdzTTGOsonde
EA1JAY-16S29503572022-12-07 13:40:3743.2548-7.543011028310795Clb=-5.4m/s p=234.8hPa t=-59.0C h=41.9% 404.000MHz Type=RS41-SGP TxOff=7h59m rdzTTGOsonde
EA1JAY-15S29503572022-12-07 13:40:2943.255-7.54543939310838Clb=-5.0m/s p=233.2hPa t=-59.4C h=42.5% 404.000MHz Type=RS41-SGP rdzTTGOsonde
EA1JAY-16S29503572022-12-07 13:40:1743.2549-7.54907917010906Clb=-5.4m/s p=230.9hPa t=-60.0C h=42.6% 404.000MHz Type=RS41-SGP TxOff=7h59m rdzTTGOsonde
EA1JAY-15S29503572022-12-07 13:40:0843.2551-7.551021027810949Clb=-5.2m/s p=229.1hPa t=-60.3C h=45.4% 404.000MHz Type=RS41-SGP TxOff=8h0m rdzTTGOsonde
EB4FMT-14S29503572022-12-07 13:40:0043.2552-7.55395898711001Clb=-5.5m/s t=-60.9C h=43.4% p=227.2hPa 404.001 MHz Type=RS41-SGP ser=S2950357 Radiosonde auto_rx v1.5.9
EA1JAY-16S29503572022-12-07 13:39:5643.2552-7.55455878911013Clb=-5.5m/s p=226.8hPa t=-61.0C h=43.7% 404.000MHz Type=RS41-SGP TxOff=8h0m rdzTTGOsonde
EA1JAY-15S29503572022-12-07 13:39:4743.255-7.55719876711066Clb=-5.0m/s p=225.0hPa t=-61.3C h=42.6% 404.000MHz Type=RS41-SGP TxOff=8h0m rdzTTGOsonde
EA1JAY-16S29503572022-12-07 13:39:3643.2551-7.55958978111118Clb=-5.3m/s p=223.0hPa t=-61.8C h=42.9% 404.000MHz Type=RS41-SGP TxOff=8h0m rdzTTGOsonde
EB4FMT-14S29503572022-12-07 13:39:3043.2551-7.56199838911159Clb=-5.1m/s t=-62.1C h=39.4% p=221.4hPa 404.001 MHz Type=RS41-SGP ser=S2950357 Radiosonde auto_rx v1.5.9
EA1JAY-15S29503572022-12-07 13:39:2743.2551-7.56259828911170Clb=-5.1m/s p=221.3hPa t=-62.1C h=39.4% 404.000MHz Type=RS41-SGP TxOff=8h0m rdzTTGOsonde
EA1JAY-16S29503572022-12-07 13:39:1643.2546-7.56553748711222Clb=-5.0m/s p=219.2hPa t=-62.5C h=38.4% 404.000MHz Type=RS41-SGP TxOff=8h1m rdzTTGOsonde
EA1JAY-15S29503572022-12-07 13:39:0643.2538-7.56819678011275Clb=-5.2m/s p=217.3hPa t=-62.7C h=33.7% 404.000MHz Type=RS41-SGP TxOff=8h1m rdzTTGOsonde
EB4FMT-14S29503572022-12-07 13:39:0043.2532-7.57007697011317Clb=-5.1m/s t=-62.9C h=32.0% p=215.9hPa 404.001 MHz Type=RS41-SGP ser=S2950357 Radiosonde auto_rx v1.5.9
EA1JAY-16S29503572022-12-07 13:38:5643.2531-7.57053757211327Clb=-4.9m/s p=215.6hPa t=-63.0C h=31.9% 404.000MHz Type=RS41-SGP TxOff=8h1m rdzTTGOsonde
EA1JAY-15S29503572022-12-07 13:38:4543.2526-7.57347818111382Clb=-5.4m/s p=213.6hPa t=-63.3C h=28.8% 404.000MHz Type=RS41-SGP TxOff=8h1m rdzTTGOsonde
EA1JAY-16S29503572022-12-07 13:38:3543.2523-7.57639799411435Clb=-4.9m/s p=211.8hPa t=-63.2C h=24.4% 404.000MHz Type=RS41-SGP TxOff=8h1m rdzTTGOsonde
EB4FMT-14S29503572022-12-07 13:38:3043.2519-7.57863749611472Clb=-5.5m/s t=-62.3C h=18.6% p=210.6hPa 404.001 MHz Type=RS41-SGP ser=S2950357 Radiosonde auto_rx v1.5.9
EA1JAY-15S29503572022-12-07 13:38:2443.2516-7.57992749811494Clb=-5.4m/s p=209.7hPa t=-61.7C h=17.1% 404.000MHz Type=RS41-SGP TxOff=8h2m rdzTTGOsonde
EA1JAY-16S29503572022-12-07 13:38:1543.2509-7.5826688711541Clb=-4.7m/s p=208.1hPa t=-62.1C h=15.8% 404.000MHz Type=RS41-SGP TxOff=8h2m rdzTTGOsonde
EA1JAY-15S29503572022-12-07 13:38:0443.2502-7.58579798911597Clb=-5.2m/s p=206.3hPa t=-62.3C h=14.4% 404.000MHz Type=RS41-SGP TxOff=8h2m rdzTTGOsonde
EB4FMT-14S29503572022-12-07 13:38:0043.25-7.58756808711631Clb=-5.9m/s t=-62.3C h=13.3% p=205.1hPa 404.001 MHz Type=RS41-SGP ser=S2950357 Radiosonde auto_rx v1.5.9
EA1JAY-16S29503572022-12-07 13:37:5443.2498-7.58872818511654Clb=-6.0m/s p=204.4hPa t=-61.6C h=11.4% 404.000MHz Type=RS41-SGP TxOff=8h2m rdzTTGOsonde
EA1JAY-15S29503572022-12-07 13:37:4343.2496-7.59189918911716Clb=-5.3m/s p=202.3hPa t=-60.5C h=9.4% 404.000MHz Type=RS41-SGP TxOff=8h2m rdzTTGOsonde
EA1JAY-16S29503572022-12-07 13:37:3443.2495-7.59468838911765Clb=-5.7m/s p=200.8hPa t=-60.9C h=9.0% 404.000MHz Type=RS41-SGP TxOff=8h3m rdzTTGOsonde
EB4FMT-14S29503572022-12-07 13:37:3043.2493-7.59643798511797Clb=-5.5m/s t=-60.6C h=8.3% p=199.7hPa 404.001 MHz Type=RS41-SGP ser=S2950357 Radiosonde auto_rx v1.5.9
EA1JAY-15S29503572022-12-07 13:37:2243.249-7.59861807411842Clb=-5.4m/s p=198.6hPa t=-60.5C h=8.4% 404.000MHz Type=RS41-SGP TxOff=8h3m rdzTTGOsonde
EA1JAY-16S29503572022-12-07 13:37:1343.2488-7.60028806911880Clb=-5.5m/s p=197.1hPa t=-60.8C h=8.5% 404.000MHz Type=RS41-SGP TxOff=8h3m rdzTTGOsonde
EA1JAY-15S29503572022-12-07 13:37:0043.2485-7.60304855711952Clb=-5.6m/s p=194.8hPa t=-59.5C h=7.3% 404.000MHz Type=RS41-SGP TxOff=8h3m rdzTTGOsonde
EA1JAY-16S29503572022-12-07 13:36:5243.2484-7.6047935212002Clb=-5.5m/s p=193.4hPa t=-59.8C h=7.9% 404.000MHz Type=RS41-SGP TxOff=8h3m rdzTTGOsonde
EA1JAY-15S29503572022-12-07 13:36:3943.2486-7.606591054412069Clb=-5.5m/s p=191.1hPa t=-59.7C h=7.4% 404.000MHz Type=RS41-SGP rdzTTGOsonde
EA1JAY-16S29503572022-12-07 13:36:3143.2489-7.607921116112112Clb=-5.7m/s p=189.8hPa t=-59.3C h=6.8% 404.000MHz Type=RS41-SGP TxOff=8h4m rdzTTGOsonde
EB4FMT-14S29503572022-12-07 13:36:3043.249-7.608541046512129Clb=-5.8m/s t=-59.3C h=6.7% p=189.3hPa 404.001 MHz Type=RS41-SGP ser=S2950357 Radiosonde auto_rx v1.5.9
EA1JAY-15S29503572022-12-07 13:36:1743.2492-7.61101866512190Clb=-5.5m/s p=187.4hPa t=-59.6C h=6.4% 404.000MHz Type=RS41-SGP rdzTTGOsonde
EA1JAY-16S29503572022-12-07 13:36:1143.249-7.61223795612224Clb=-6.0m/s p=186.4hPa t=-59.8C h=6.3% 404.000MHz Type=RS41-SGP TxOff=8h4m rdzTTGOsonde
EB4FMT-14S29503572022-12-07 13:36:0043.249-7.61421054412298Clb=-6.0m/s t=-60.1C h=5.6% p=184.2hPa 404.001 MHz Type=RS41-SGP ser=S2950357 Radiosonde auto_rx v1.5.9
EA1JAY-15S29503572022-12-07 13:35:5643.2491-7.614511085212310Clb=-5.8m/s p=183.9hPa t=-60.1C h=5.5% 404.000MHz Type=RS41-SGP TxOff=8h4m rdzTTGOsonde
EA1JAY-16S29503572022-12-07 13:35:5043.2492-7.61571976512344Clb=-5.7m/s p=182.9hPa t=-59.7C h=5.1% 404.000MHz Type=RS41-SGP TxOff=8h4m rdzTTGOsonde
EA1JAY-15S29503572022-12-07 13:35:3443.249-7.61879785012433Clb=-5.6m/s p=180.3hPa t=-60.0C h=4.4% 404.000MHz Type=RS41-SGP TxOff=8h4m rdzTTGOsonde
EA1JAY-16S29503572022-12-07 13:35:2943.2488-7.61956754312462Clb=-6.5m/s p=179.4hPa t=-60.2C h=4.4% 404.000MHz Type=RS41-SGP TxOff=8h4m rdzTTGOsonde
EA1JAY-15S29503572022-12-07 13:35:0943.2487-7.62256904612579Clb=-5.7m/s p=176.2hPa t=-60.2C h=4.1% 404.000MHz Type=RS41-SGP TxOff=8h4m rdzTTGOsonde
EA1JAY-16S29503572022-12-07 13:35:0843.2487-7.62272924612585Clb=-5.9m/s p=176.0hPa t=-60.2C h=4.0% 404.000MHz Type=RS41-SGP TxOff=8h4m rdzTTGOsonde
EB4FMT-14S29503572022-12-07 13:35:0043.2488-7.62443965712645Clb=-5.9m/s t=-59.2C h=3.6% p=174.3hPa 404.001 MHz Type=RS41-SGP ser=S2950357 Radiosonde auto_rx v1.5.9
EA1JAY-15S29503572022-12-07 13:34:4843.2487-7.62653805612703Clb=-5.6m/s p=172.7hPa t=-58.4C h=3.4% 404.000MHz Type=RS41-SGP TxOff=8h5m rdzTTGOsonde
EA1JAY-16S29503572022-12-07 13:34:4743.2486-7.62689785412715Clb=-5.9m/s p=172.6hPa t=-58.4C h=3.3% 404.000MHz Type=RS41-SGP TxOff=8h5m rdzTTGOsonde
EB4FMT-14S29503572022-12-07 13:34:3043.2481-7.62934913312821Clb=-5.3m/s t=-58.5C h=3.1% p=169.5hPa 404.001 MHz Type=RS41-SGP ser=S2950357 Radiosonde auto_rx v1.5.9
EA1JAY-15S29503572022-12-07 13:34:2843.2481-7.62934923512822Clb=-5.3m/s p=169.5hPa t=-58.5C h=3.2% 404.000MHz Type=RS41-SGP TxOff=8h5m rdzTTGOsonde
EA1JAY-16S29503572022-12-07 13:34:2643.2481-7.62958953712833Clb=-5.7m/s p=169.2hPa t=-58.5C h=3.1% 404.000MHz Type=RS41-SGP TxOff=8h5m rdzTTGOsonde
EA1JAY-15S29503572022-12-07 13:34:0743.2479-7.6329766312943Clb=-5.9m/s p=166.3hPa t=-58.7C h=3.1% 404.000MHz Type=RS41-SGP rdzTTGOsonde
EA1JAY-16S29503572022-12-07 13:34:0643.2479-7.63311756512949Clb=-6.0m/s p=166.2hPa t=-58.7C h=3.1% 404.000MHz Type=RS41-SGP TxOff=8h6m rdzTTGOsonde
EB4FMT-14S29503572022-12-07 13:34:0043.2474-7.6348616512996Clb=-5.9m/s t=-58.9C h=3.1% p=164.8hPa 404.001 MHz Type=RS41-SGP ser=S2950357 Radiosonde auto_rx v1.5.9
EA1JAY-16S29503572022-12-07 13:33:4543.2467-7.63689835413073Clb=-5.8m/s p=162.8hPa t=-58.8C h=3.0% 404.000MHz Type=RS41-SGP TxOff=8h6m rdzTTGOsonde
EA1JAY-15S29503572022-12-07 13:33:4443.2467-7.63707855613079Clb=-6.2m/s p=162.7hPa t=-58.9C h=3.0% 404.000MHz Type=RS41-SGP rdzTTGOsonde
EB4FMT-14S29503572022-12-07 13:33:3043.2463-7.64093788113176Clb=-5.9m/s t=-59.2C h=3.0% p=160.2hPa 404.001 MHz Type=RS41-SGP ser=S2950357 Radiosonde auto_rx v1.5.9
EA1JAY-16S29503572022-12-07 13:33:2443.2461-7.64203758313200Clb=-6.6m/s p=159.6hPa t=-59.4C h=3.0% 404.000MHz Type=RS41-SGP TxOff=8h7m rdzTTGOsonde
EA1JAY-15S29503572022-12-07 13:33:2343.2461-7.6423748113207Clb=-6.2m/s p=159.5hPa t=-59.4C h=3.0% 404.000MHz Type=RS41-SGP rdzTTGOsonde
EA1JAY-16S29503572022-12-07 13:33:0443.2454-7.64618925213324Clb=-6.5m/s p=156.4hPa t=-59.7C h=3.0% 404.000MHz Type=RS41-SGP TxOff=8h7m rdzTTGOsonde
EA1JAY-15S29503572022-12-07 13:33:0343.2454-7.64636945213330Clb=-6.5m/s p=156.2hPa t=-59.5C h=3.0% 404.000MHz Type=RS41-SGP rdzTTGOsonde
EB4FMT-14S29503572022-12-07 13:33:0043.2454-7.6473965713361Clb=-5.9m/s t=-59.4C h=2.8% p=155.5hPa 404.001 MHz Type=RS41-SGP ser=S2950357 Radiosonde auto_rx v1.5.9
EA1JAY-16S29503572022-12-07 13:32:4343.2459-7.650421046913455Clb=-6.6m/s p=153.2hPa t=-58.9C h=2.7% 404.000MHz Type=RS41-SGP TxOff=8h7m rdzTTGOsonde
EA1JAY-15S29503572022-12-07 13:32:4243.2459-7.650651037013462Clb=-6.5m/s p=153.0hPa t=-58.9C h=2.7% 404.000MHz Type=RS41-SGP rdzTTGOsonde
EB4FMT-14S29503572022-12-07 13:32:3043.2459-7.65407806313552Clb=-6.9m/s t=-59.0C h=2.6% p=150.8hPa 404.001 MHz Type=RS41-SGP ser=S2950357 Radiosonde auto_rx v1.5.9
EA1JAY-16S29503572022-12-07 13:32:2343.2458-7.65504855213584Clb=-6.4m/s p=150.1hPa t=-59.1C h=2.5% 404.000MHz Type=RS41-SGP TxOff=8h8m rdzTTGOsonde
EA1JAY-15S29503572022-12-07 13:32:1743.2458-7.65606894613623Clb=-6.8m/s p=149.1hPa t=-59.3C h=2.5% 404.000MHz Type=RS41-SGP TxOff=8h8m rdzTTGOsonde
EA1JAY-16S29503572022-12-07 13:32:0243.2461-7.65841165213729Clb=-6.7m/s p=146.8hPa t=-58.8C h=2.4% 404.000MHz Type=RS41-SGP TxOff=8h8m rdzTTGOsonde
EB4FMT-14S29503572022-12-07 13:32:0043.2462-7.658911135713749Clb=-6.8m/s t=-58.7C h=2.5% p=146.1hPa 404.001 MHz Type=RS41-SGP ser=S2950357 Radiosonde auto_rx v1.5.9
EA1JAY-15S29503572022-12-07 13:31:5743.2463-7.65911126113756Clb=-6.9m/s p=146.0hPa t=-58.6C h=2.5% 404.000MHz Type=RS41-SGP TxOff=8h8m rdzTTGOsonde
EA1JAY-16S29503572022-12-07 13:31:4243.2464-7.66209844113864Clb=-6.7m/s p=143.7hPa t=-57.8C h=2.3% 404.000MHz Type=RS41-SGP TxOff=8h9m rdzTTGOsonde
EA1JAY-15S29503572022-12-07 13:31:3643.2464-7.66272953513897Clb=-6.9m/s p=142.8hPa t=-57.5C h=2.2% 404.000MHz Type=RS41-SGP TxOff=8h9m rdzTTGOsonde
EB4FMT-14S29503572022-12-07 13:31:3043.2465-7.663611053313950Clb=-6.6m/s t=-57.0C h=2.0% p=141.5hPa 404.001 MHz Type=RS41-SGP ser=S2950357 Radiosonde auto_rx v1.5.9
EA1JAY-16S29503572022-12-07 13:31:2143.2467-7.664371173313997Clb=-6.6m/s p=140.5hPa t=-56.7C h=2.0% 404.000MHz Type=RS41-SGP TxOff=8h9m rdzTTGOsonde
EA1JAY-15S29503572022-12-07 13:31:1443.247-7.665091263914045Clb=-6.9m/s p=139.5hPa t=-56.9C h=2.0% 404.000MHz Type=RS41-SGP TxOff=8h9m rdzTTGOsonde
EA1JAY-16S29503572022-12-07 13:31:0043.2479-7.667171075914138Clb=-6.6m/s p=137.4hPa t=-56.6C h=1.9% 404.000MHz Type=RS41-SGP TxOff=8h9m rdzTTGOsonde
EA1JAY-15S29503572022-12-07 13:30:5343.248-7.66862895914187Clb=-7.0m/s p=136.4hPa t=-56.9C h=1.9% 404.000MHz Type=RS41-SGP TxOff=8h9m rdzTTGOsonde
EA1JAY-16S29503572022-12-07 13:30:3943.2478-7.67089903714281Clb=-6.7m/s p=134.4hPa t=-57.5C h=1.9% 404.000MHz Type=RS41-SGP TxOff=8h10m rdzTTGOsonde
EA1JAY-15S29503572022-12-07 13:30:3343.2478-7.671611083714323Clb=-7.3m/s p=133.5hPa t=-57.6C h=2.0% 404.000MHz Type=RS41-SGP rdzTTGOsonde
EB4FMT-14S29503572022-12-07 13:30:3043.248-7.67231155014358Clb=-6.8m/s t=-57.4C h=2.0% p=132.7hPa 404.001 MHz Type=RS41-SGP ser=S2950357 Radiosonde auto_rx v1.5.9
EA1JAY-16S29503572022-12-07 13:30:1843.2485-7.674231016314426Clb=-6.9m/s p=131.3hPa t=-57.5C h=2.0% 404.000MHz Type=RS41-SGP TxOff=8h10m rdzTTGOsonde
EA1JAY-15S29503572022-12-07 13:30:1043.2486-7.67578885014482Clb=-6.9m/s p=130.1hPa t=-57.9C h=2.1% 404.000MHz Type=RS41-SGP rdzTTGOsonde
EB4FMT-14S29503572022-12-07 13:30:0043.2485-7.67749853014565Clb=-7.0m/s t=-57.4C h=1.9% p=128.4hPa 404.001 MHz Type=RS41-SGP ser=S2950357 Radiosonde auto_rx v1.5.9
EA1JAY-16S29503572022-12-07 13:29:5843.2485-7.67749863014565Clb=-7.0m/s p=128.4hPa t=-57.4C h=2.0% 404.000MHz Type=RS41-SGP TxOff=8h10m rdzTTGOsonde
EA1JAY-15S29503572022-12-07 13:29:5043.2485-7.678161172414622Clb=-7.1m/s p=127.3hPa t=-57.6C h=2.0% 404.000MHz Type=RS41-SGP rdzTTGOsonde
EA1JAY-16S29503572022-12-07 13:29:3743.2492-7.679511184614720Clb=-7.0m/s p=125.5hPa t=-57.8C h=2.1% 404.000MHz Type=RS41-SGP TxOff=8h10m rdzTTGOsonde
EB4FMT-14S29503572022-12-07 13:29:3043.2495-7.680761005014777Clb=-7.1m/s t=-58.1C h=2.0% p=124.2hPa 404.001 MHz Type=RS41-SGP ser=S2950357 Radiosonde auto_rx v1.5.9
EA1JAY-15S29503572022-12-07 13:29:2443.2496-7.68147935214806Clb=-7.2m/s p=123.6hPa t=-58.1C h=2.1% 404.000MHz Type=RS41-SGP rdzTTGOsonde
EA1JAY-16S29503572022-12-07 13:29:1743.2495-7.68276774314864Clb=-7.3m/s p=122.6hPa t=-58.4C h=2.2% 404.000MHz Type=RS41-SGP TxOff=8h10m rdzTTGOsonde
EA1JAY-15S29503572022-12-07 13:29:0143.2492-7.68439962414971Clb=-7.5m/s p=120.4hPa t=-58.7C h=2.2% 404.000MHz Type=RS41-SGP TxOff=8h11m rdzTTGOsonde
EB4FMT-14S29503572022-12-07 13:29:0043.2492-7.684641052614993Clb=-6.9m/s t=-58.5C h=2.1% p=120.0hPa 404.001 MHz Type=RS41-SGP ser=S2950357 Radiosonde auto_rx v1.5.9
EA1JAY-16S29503572022-12-07 13:28:5643.2492-7.684821103015007Clb=-7.6m/s p=119.7hPa t=-58.4C h=2.2% 404.000MHz Type=RS41-SGP TxOff=8h11m rdzTTGOsonde
EA1JAY-16S29503572022-12-07 13:28:3643.2499-7.68755954615152Clb=-7.3m/s p=117.0hPa t=-59.5C h=2.4% 404.000MHz Type=RS41-SGP TxOff=8h11m rdzTTGOsonde
EB4FMT-14S29503572022-12-07 13:28:3043.2499-7.68877784315210Clb=-7.3m/s t=-59.9C h=2.4% p=115.9hPa 404.001 MHz Type=RS41-SGP ser=S2950357 Radiosonde auto_rx v1.5.9
EA1JAY-15S29503572022-12-07 13:28:1543.2493-7.69007561915307Clb=-7.5m/s p=114.1hPa t=-59.5C h=2.4% 404.000MHz Type=RS41-SGP TxOff=8h12m rdzTTGOsonde
EB4FMT-14S29503572022-12-07 13:28:0043.2496-7.69122993915434Clb=-7.7m/s t=-60.0C h=2.4% p=111.8hPa 404.001 MHz Type=RS41-SGP ser=S2950357 Radiosonde auto_rx v1.5.9
EA1JAY-15S29503572022-12-07 13:27:5443.2496-7.6918914415465Clb=-7.8m/s p=111.3hPa t=-60.1C h=2.6% 404.000MHz Type=RS41-SGP TxOff=8h12m rdzTTGOsonde
EA1JAY-16S29503572022-12-07 13:27:3443.2491-7.694291032615618Clb=-7.6m/s p=108.5hPa t=-60.3C h=2.6% 404.000MHz Type=RS41-SGP TxOff=8h12m rdzTTGOsonde
EB4FMT-14S29503572022-12-07 13:27:3043.2492-7.694971104415663Clb=-7.2m/s t=-60.4C h=2.5% p=107.8hPa 404.001 MHz Type=RS41-SGP ser=S2950357 Radiosonde auto_rx v1.5.9
EA1JAY-16S29503572022-12-07 13:27:1343.2491-7.69737613915778Clb=-7.7m/s p=105.8hPa t=-61.0C h=2.6% 404.000MHz Type=RS41-SGP rdzTTGOsonde
EB4FMT-14S29503572022-12-07 13:27:0043.2489-7.698581133115893Clb=-7.7m/s t=-60.9C h=2.6% p=103.8hPa 404.001 MHz Type=RS41-SGP ser=S2950357 Radiosonde auto_rx v1.5.9
EA1JAY-16S29503572022-12-07 13:26:5243.2491-7.699321104415940Clb=-7.8m/s p=103.0hPa t=-61.3C h=2.7% 404.000MHz Type=RS41-SGP rdzTTGOsonde
EA1JAY-15S29503572022-12-07 13:26:4143.2491-7.70097744316025Clb=-8.0m/s p=101.7hPa t=-61.5C h=2.7% 404.000MHz Type=RS41-SGP TxOff=8h13m rdzTTGOsonde
EA1JAY-16S29503572022-12-07 13:26:3243.2487-7.70201592416104Clb=-7.8m/s p=100.5hPa t=-61.7C h=2.7% 404.000MHz Type=RS41-SGP TxOff=8h14m rdzTTGOsonde
EB4FMT-14S29503572022-12-07 13:26:3043.2486-7.70222711916128Clb=-8.0m/s t=-61.7C h=2.7% p=100.0hPa 404.001 MHz Type=RS41-SGP ser=S2950357 Radiosonde auto_rx v1.5.9
EA1JAY-15S29503572022-12-07 13:26:2043.2486-7.70271041916191Clb=-7.7m/s p=99.0hPa t=-61.5C h=2.7% 404.000MHz Type=RS41-SGP TxOff=8h14m rdzTTGOsonde
EA1JAY-16S29503572022-12-07 13:26:1243.2488-7.70369984616264Clb=-8.3m/s p=98.0hPa t=-61.5C h=2.7% 404.000MHz Type=RS41-SGP TxOff=8h14m rdzTTGOsonde
EA1JAY-15S29503572022-12-07 13:26:0043.2485-7.70542604116354Clb=-8.1m/s p=96.4hPa t=-61.8C h=2.8% 404.000MHz Type=RS41-SGP TxOff=8h14m rdzTTGOsonde
EA1JAY-16S29503572022-12-07 13:25:5243.2481-7.70617512216426Clb=-8.1m/s p=95.4hPa t=-61.8C h=2.7% 404.000MHz Type=RS41-SGP TxOff=8h14m rdzTTGOsonde
EA1JAY-15S29503572022-12-07 13:25:3943.248-7.706871012216524Clb=-8.4m/s p=93.8hPa t=-61.9C h=2.6% 404.000MHz Type=RS41-SGP TxOff=8h15m rdzTTGOsonde
EA1JAY-16S29503572022-12-07 13:25:3143.2481-7.707581013016589Clb=-7.9m/s p=92.8hPa t=-62.3C h=2.7% 404.000MHz Type=RS41-SGP TxOff=8h15m rdzTTGOsonde
EB4FMT-14S29503572022-12-07 13:25:3043.2481-7.7079923316613Clb=-8.2m/s t=-62.4C h=2.7% p=92.4hPa 404.001 MHz Type=RS41-SGP ser=S2950357 Radiosonde auto_rx v1.5.9
EA1JAY-15S29503572022-12-07 13:25:1743.2479-7.71008754816738Clb=-8.2m/s p=91.1hPa t=-62.5C h=2.7% 404.000MHz Type=RS41-SGP TxOff=8h15m rdzTTGOsonde
EA1JAY-16S29503572022-12-07 13:25:1043.2478-7.71054674816762Clb=-8.1m/s p=90.2hPa t=-62.8C h=2.7% 404.000MHz Type=RS41-SGP TxOff=8h15m rdzTTGOsonde
EB4FMT-14S29503572022-12-07 13:25:0043.247-7.71189373116863Clb=-8.7m/s t=-63.2C h=2.7% p=88.8hPa 404.001 MHz Type=RS41-SGP ser=S2950357 Radiosonde auto_rx v1.5.9
EA1JAY-15S29503572022-12-07 13:24:5643.2469-7.71201363016880Clb=-8.3m/s p=88.5hPa t=-63.1C h=2.7% 404.000MHz Type=RS41-SGP TxOff=8h15m rdzTTGOsonde
EA1JAY-16S29503572022-12-07 13:24:4943.2466-7.71234491716940Clb=-8.8m/s p=87.6hPa t=-63.4C h=2.7% 404.000MHz Type=RS41-SGP TxOff=8h16m rdzTTGOsonde
EA1JAY-15S29503572022-12-07 13:24:3343.2467-7.713581104117077Clb=-8.7m/s p=85.7hPa t=-63.2C h=2.6% 404.000MHz Type=RS41-SGP TxOff=8h16m rdzTTGOsonde
EA1JAY-16S29503572022-12-07 13:24:2943.2468-7.714181004817112Clb=-8.5m/s p=85.2hPa t=-62.9C h=2.6% 404.000MHz Type=RS41-SGP TxOff=8h16m rdzTTGOsonde
EA1JAY-15S29503572022-12-07 13:24:1143.2466-7.7161611917267Clb=-8.8m/s p=83.1hPa t=-62.2C h=2.3% 404.000MHz Type=RS41-SGP TxOff=8h16m rdzTTGOsonde
EA1JAY-16S29503572022-12-07 13:24:0743.2465-7.7163311317310Clb=-8.3m/s p=82.6hPa t=-62.0C h=2.3% 404.000MHz Type=RS41-SGP TxOff=8h16m rdzTTGOsonde
EB4FMT-14S29503572022-12-07 13:24:0043.2464-7.71625272417378Clb=-8.6m/s t=-62.4C h=2.4% p=81.6hPa 404.001 MHz Type=RS41-SGP ser=S2950357 Radiosonde auto_rx v1.5.9
EA1JAY-15S29503572022-12-07 13:23:4943.2466-7.716291602417455Clb=-9.0m/s p=80.6hPa t=-62.4C h=2.3% 404.000MHz Type=RS41-SGP rdzTTGOsonde
EA1JAY-16S29503572022-12-07 13:23:4643.2468-7.716421493117482Clb=-9.5m/s p=80.2hPa t=-62.4C h=2.4% 404.000MHz Type=RS41-SGP TxOff=8h16m rdzTTGOsonde
EA1JAY-15S29503572022-12-07 13:23:2943.2471-7.71824611917636Clb=-9.1m/s p=78.2hPa t=-61.7C h=2.2% 404.000MHz Type=RS41-SGP rdzTTGOsonde
EA1JAY-16S29503572022-12-07 13:23:2543.247-7.71834151217673Clb=-9.0m/s p=77.8hPa t=-61.7C h=2.2% 404.000MHz Type=RS41-SGP TxOff=8h16m rdzTTGOsonde
EA1JAY-15S29503572022-12-07 13:23:0743.2476-7.71942943317839Clb=-9.1m/s p=75.7hPa t=-61.7C h=2.1% 404.000MHz Type=RS41-SGP TxOff=8h17m rdzTTGOsonde
EA1JAY-16S29503572022-12-07 13:23:0543.2476-7.71965853317857Clb=-9.4m/s p=75.5hPa t=-61.6C h=2.1% 404.000MHz Type=RS41-SGP TxOff=8h17m rdzTTGOsonde
EB4FMT-14S29503572022-12-07 13:23:0043.2475-7.72034562817923Clb=-9.1m/s t=-61.6C h=2.0% p=74.7hPa 404.001 MHz Type=RS41-SGP ser=S2950357 Radiosonde auto_rx v1.5.9
EA1JAY-15S29503572022-12-07 13:22:4743.2472-7.72096941318035Clb=-9.3m/s p=73.5hPa t=-61.6C h=2.1% 404.000MHz Type=RS41-SGP TxOff=8h17m rdzTTGOsonde
EA1JAY-16S29503572022-12-07 13:22:4443.2472-7.72106921518054Clb=-9.7m/s p=73.1hPa t=-61.5C h=2.0% 404.000MHz Type=RS41-SGP TxOff=8h17m rdzTTGOsonde
EB4FMT-14S29503572022-12-07 13:22:3043.2473-7.721751501518208Clb=-9.7m/s t=-62.1C h=2.0% p=71.3hPa 404.001 MHz Type=RS41-SGP ser=S2950357 Radiosonde auto_rx v1.5.9
EA1JAY-15S29503572022-12-07 13:22:2643.2474-7.721791661918228Clb=-9.4m/s p=71.1hPa t=-62.2C h=2.0% 404.000MHz Type=RS41-SGP TxOff=8h17m rdzTTGOsonde
EA1JAY-16S29503572022-12-07 13:22:2343.2475-7.721821792018256Clb=-9.5m/s p=70.8hPa t=-62.5C h=2.0% 404.000MHz Type=RS41-SGP TxOff=8h17m rdzTTGOsonde
EA1JAY-15S29503572022-12-07 13:22:0643.2488-7.722221363718420Clb=-9.9m/s p=68.9hPa t=-63.0C h=2.2% 404.000MHz Type=RS41-SGP TxOff=8h18m rdzTTGOsonde
EA1JAY-16S29503572022-12-07 13:22:0343.249-7.722511183518449Clb=-10.0m/s p=68.6hPa t=-63.0C h=2.1% 404.000MHz Type=RS41-SGP TxOff=8h18m rdzTTGOsonde
EB4FMT-14S29503572022-12-07 13:22:0043.2491-7.72308903318499Clb=-10.2m/s t=-62.9C h=2.1% p=68.0hPa 404.001 MHz Type=RS41-SGP ser=S2950357 Radiosonde auto_rx v1.5.9
EA1JAY-15S29503572022-12-07 13:21:4543.2488-7.7238224218628Clb=-10.1m/s p=66.6hPa t=-62.1C h=2.1% 404.000MHz Type=RS41-SGP TxOff=8h18m rdzTTGOsonde
EA1JAY-16S29503572022-12-07 13:21:4243.2489-7.723811861118668Clb=-9.9m/s p=66.4hPa t=-61.5C h=1.9% 404.000MHz Type=RS41-SGP TxOff=8h18m rdzTTGOsonde
EB4FMT-14S29503572022-12-07 13:21:3043.2497-7.724121444318801Clb=-10.3m/s t=-61.8C h=1.7% p=64.8hPa 404.001 MHz Type=RS41-SGP ser=S2950357 Radiosonde auto_rx v1.5.9
EA1JAY-15S29503572022-12-07 13:21:2443.2501-7.724551264318842Clb=-10.4m/s p=64.4hPa t=-62.0C h=1.8% 404.000MHz Type=RS41-SGP rdzTTGOsonde
EA1JAY-16S29503572022-12-07 13:21:2243.2502-7.724791193918863Clb=-10.3m/s p=64.2hPa t=-61.8C h=1.8% 404.000MHz Type=RS41-SGP TxOff=8h19m rdzTTGOsonde
EA1JAY-16S29503572022-12-07 13:21:0143.2501-7.725721851319080Clb=-10.5m/s p=62.0hPa t=-62.0C h=1.9% 404.000MHz Type=RS41-SGP TxOff=8h19m rdzTTGOsonde
EB4FMT-14S29503572022-12-07 13:21:0043.2503-7.725721731919112Clb=-10.6m/s t=-62.0C h=1.8% p=61.6hPa 404.001 MHz Type=RS41-SGP ser=S2950357 Radiosonde auto_rx v1.5.9
EA1JAY-16S29503572022-12-07 13:20:4043.2508-7.72742562619300Clb=-10.6m/s p=59.8hPa t=-61.9C h=1.9% 404.000MHz Type=RS41-SGP TxOff=8h20m rdzTTGOsonde
EA1JAY-15S29503572022-12-07 13:20:3643.2506-7.72757354919352Clb=-10.3m/s p=59.3hPa t=-60.9C h=1.7% 404.000MHz Type=RS41-SGP rdzTTGOsonde
EB4FMT-14S29503572022-12-07 13:20:3043.2506-7.727342541519424Clb=-10.5m/s t=-60.6C h=1.6% p=58.6hPa 404.001 MHz Type=RS41-SGP ser=S2950357 Radiosonde auto_rx v1.5.9
EA1JAY-16S29503572022-12-07 13:20:2143.2508-7.727011941319507Clb=-10.4m/s p=57.8hPa t=-60.7C h=1.6% 404.000MHz Type=RS41-SGP TxOff=8h20m rdzTTGOsonde
EA1JAY-16S29503572022-12-07 13:20:0043.2509-7.72783842019726Clb=-10.2m/s p=55.8hPa t=-61.4C h=1.8% 404.000MHz Type=RS41-SGP TxOff=8h20m rdzTTGOsonde
EA1JAY-16S29503572022-12-07 13:19:3943.2514-7.729341122619932Clb=-10.2m/s p=54.0hPa t=-60.7C h=1.6% 404.000MHz Type=RS41-SGP TxOff=8h21m rdzTTGOsonde
EB4FMT-14S29503572022-12-07 13:19:3043.2517-7.730411213520048Clb=-10.6m/s t=-60.4C h=1.6% p=53.0hPa 404.001 MHz Type=RS41-SGP ser=S2950357 Radiosonde auto_rx v1.5.9
EA1JAY-16S29503572022-12-07 13:19:1943.2523-7.731181583120144Clb=-10.7m/s p=52.2hPa t=-60.3C h=1.5% 404.000MHz Type=RS41-SGP TxOff=8h21m rdzTTGOsonde
EB4FMT-14S29503572022-12-07 13:19:0043.2539-7.731581444420366Clb=-11.1m/s t=-60.9C h=1.5% p=50.3hPa 404.001 MHz Type=RS41-SGP ser=S2950357 Radiosonde auto_rx v1.5.9
EA1JAY-16S29503572022-12-07 13:18:5843.2539-7.731581464620366Clb=-11.1m/s p=50.3hPa t=-60.8C h=1.5% 404.000MHz Type=RS41-SGP rdzTTGOsonde
EA1JAY-16S29503572022-12-07 13:18:3743.2546-7.7335195720598Clb=-11.0m/s p=48.4hPa t=-60.3C h=1.6% 404.000MHz Type=RS41-SGP rdzTTGOsonde
EB4FMT-14S29503572022-12-07 13:18:3043.2549-7.733511741720697Clb=-11.3m/s t=-60.4C h=1.5% p=47.7hPa 404.001 MHz Type=RS41-SGP ser=S2950357 Radiosonde auto_rx v1.5.9
EA1JAY-16S29503572022-12-07 13:18:1743.2557-7.733511803720831Clb=-11.3m/s p=46.7hPa t=-60.2C h=1.5% 404.000MHz Type=RS41-SGP rdzTTGOsonde
EB4FMT-14S29503572022-12-07 13:18:0043.2574-7.734511462221033Clb=-11.3m/s t=-60.5C h=1.5% p=45.2hPa 404.001 MHz Type=RS41-SGP ser=S2950357 Radiosonde auto_rx v1.5.9
EA1JAY-16S29503572022-12-07 13:17:5643.2575-7.73461482221056Clb=-11.1m/s p=45.0hPa t=-60.3C h=1.6% 404.000MHz Type=RS41-SGP TxOff=8h22m rdzTTGOsonde
EA1JAY-16S29503572022-12-07 13:17:3643.258-7.73612842621293Clb=-11.6m/s p=43.4hPa t=-60.2C h=1.5% 404.000MHz Type=RS41-SGP TxOff=8h22m rdzTTGOsonde
EA1JAY-16S29503572022-12-07 13:17:1543.2574-7.73777662821525Clb=-12.1m/s p=41.8hPa t=-59.9C h=1.5% 404.000MHz Type=RS41-SGP TxOff=8h23m rdzTTGOsonde
CT7AUS-11S29503572022-12-07 13:17:1143.2577-7.738381772821668Clb=-12.3m/s t=-60.3C h=1.4% p=40.8hPa 404.000 MHz Type=RS41-SGP ser=S2950357 Radiosonde
EA1JAY-16S29503572022-12-07 13:16:5443.2585-7.738411823521776Clb=-12.3m/s p=40.1hPa t=-60.2C h=1.5% 404.000MHz Type=RS41-SGP TxOff=8h23m rdzTTGOsonde
CT7AUS-11S29503572022-12-07 13:16:4043.2599-7.737862204621973Clb=-12.7m/s t=-60.0C h=1.4% p=38.8hPa 404.000 MHz Type=RS41-SGP ser=S2950357 Radiosonde
EA1JAY-16S29503572022-12-07 13:16:3443.2602-7.737352534322025Clb=-13.0m/s p=38.5hPa t=-59.9C h=1.4% 404.000MHz Type=RS41-SGP TxOff=8h23m rdzTTGOsonde
EA4EKH-11S29503572022-12-07 13:16:2543.2601-7.736731301922166Clb=-12.5m/s t=-59.7C h=-1.0% p=37.6hPa 404.000 MHz Type=RS41-SGP ser=S2950357 Radiosonde
EA1JAY-16S29503572022-12-07 13:16:1343.2608-7.736552514322298Clb=-13.0m/s p=36.9hPa t=-59.9C h=1.4% 404.000MHz Type=RS41-SGP TxOff=8h24m rdzTTGOsonde
CT7AUS-11S29503572022-12-07 13:16:0843.2606-7.735783302422390Clb=-12.8m/s t=-60.3C h=1.3% p=36.3hPa 404.000 MHz Type=RS41-SGP ser=S2950357 Radiosonde
EB4FMT-14S29503572022-12-07 13:16:0043.2607-7.735981733522496Clb=-13.5m/s t=-60.7C h=1.4% p=35.7hPa 404.001 MHz Type=RS41-SGP ser=S2950357 Radiosonde auto_rx v1.5.9
EA4EKH-11S29503572022-12-07 13:15:5443.2612-7.735522583322588Clb=-13.0m/s t=-61.1C h=-1.0% p=35.2hPa 404.000 MHz Type=RS41-SGP ser=S2950357 Radiosonde
EA1JAY-16S29503572022-12-07 13:15:5243.2612-7.735522603322588Clb=-13.0m/s p=35.3hPa t=-61.0C h=1.5% 404.000MHz Type=RS41-SGP TxOff=8h24m rdzTTGOsonde
CT7AUS-11S29503572022-12-07 13:15:3843.2607-7.73524622222779Clb=-12.4m/s t=-61.9C h=1.5% p=34.1hPa 404.000 MHz Type=RS41-SGP ser=S2950357 Radiosonde
EA1JAY-16S29503572022-12-07 13:15:3243.2606-7.73565862822842Clb=-12.6m/s p=33.8hPa t=-62.0C h=1.7% 404.000MHz Type=RS41-SGP TxOff=8h25m rdzTTGOsonde
EB4FMT-14S29503572022-12-07 13:15:3043.2606-7.73596913122880Clb=-12.4m/s t=-61.9C h=1.6% p=33.5hPa 404.001 MHz Type=RS41-SGP ser=S2950357 Radiosonde auto_rx v1.5.9
EA4EKH-11S29503572022-12-07 13:15:2343.2608-7.736681233522969Clb=-13.4m/s t=-273.0C h=-1.0% p=-1.0hPa 404.000 MHz Type=RS41-SGP ser=S2950357 Radiosonde
EA1JAY-16S29503572022-12-07 13:15:1143.2612-7.737511342223098Clb=-12.9m/s p=32.4hPa t=-60.9C h=1.5% 404.000MHz Type=RS41-SGP TxOff=8h25m rdzTTGOsonde
CT7AUS-11S29503572022-12-07 13:15:0643.2615-7.737811342223176Clb=-13.5m/s t=-61.3C h=1.3% p=31.9hPa 404.000 MHz Type=RS41-SGP ser=S2950357 Radiosonde
EB4FMT-14S29503572022-12-07 13:15:0043.2618-7.738271493923269Clb=-13.5m/s t=-61.8C h=1.4% p=31.5hPa 404.001 MHz Type=RS41-SGP ser=S2950357 Radiosonde auto_rx v1.5.9
EA1JAY-16S29503572022-12-07 13:14:5043.2628-7.738621795923379Clb=-14.7m/s p=30.9hPa t=-61.8C h=1.6% 404.000MHz Type=RS41-SGP TxOff=8h25m rdzTTGOsonde
CT7AUS-11S29503572022-12-07 13:14:3543.2645-7.737442104823599Clb=-13.7m/s t=-62.1C h=1.5% p=29.8hPa 404.000 MHz Type=RS41-SGP ser=S2950357 Radiosonde
EA1JAY-16S29503572022-12-07 13:14:2943.2651-7.737062025723667Clb=-14.2m/s p=29.5hPa t=-62.1C h=1.6% 404.000MHz Type=RS41-SGP TxOff=8h26m rdzTTGOsonde
EA1JAY-16S29503572022-12-07 13:14:0843.2674-7.737181283323966Clb=-14.8m/s p=28.1hPa t=-61.8C h=1.5% 404.000MHz Type=RS41-SGP TxOff=8h26m rdzTTGOsonde
CT7AUS-11S29503572022-12-07 13:14:0443.2675-7.73765802624037Clb=-15.7m/s t=-61.7C h=1.4% p=27.7hPa 404.000 MHz Type=RS41-SGP ser=S2950357 Radiosonde
EA1JAY-16S29503572022-12-07 13:13:5243.267-7.73822322824277Clb=-16.5m/s p=26.7hPa t=-61.2C h=1.5% 404.000MHz Type=RS41-SGP TxOff=8h27m rdzTTGOsonde
EA1JAY-16S29503572022-12-07 13:13:5143.2686-7.738812092424946Clb=-15.3m/s p=23.9hPa t=-62.4C h=1.6% 404.000MHz Type=RS41-SGP TxOff=8h27m rdzTTGOsonde
CT7AUS-11S29503572022-12-07 13:13:5043.2694-7.740571653125536Clb=-17.0m/s t=-62.6C h=1.5% p=21.7hPa 404.000 MHz Type=RS41-SGP ser=S2950357 Radiosonde
EA1JAY-16S29503572022-12-07 13:13:3943.2701-7.742111535025937Clb=-16.3m/s p=20.3hPa t=-62.7C h=1.6% 404.000MHz Type=RS41-SGP TxOff=8h28m rdzTTGOsonde
CT7AUS-11S29503572022-12-07 13:13:3543.271-7.742641565426051Clb=-17.2m/s t=-62.2C h=1.5% p=19.9hPa 404.000 MHz Type=RS41-SGP ser=S2950357 Radiosonde
EA1JAY-16S29503572022-12-07 13:13:2143.2721-7.743281455726276Clb=-17.0m/s p=19.2hPa t=-62.0C h=1.5% 404.000MHz Type=RS41-SGP TxOff=8h28m rdzTTGOsonde
CT7AUS-11S29503572022-12-07 13:13:0943.2732-7.746881022826577Clb=-16.4m/s t=-62.6C h=1.5% p=18.3hPa 404.000 MHz Type=RS41-SGP ser=S2950357 Radiosonde
EA1JAY-16S29503572022-12-07 13:13:0543.2732-7.747071502026626Clb=-16.9m/s p=18.2hPa t=-62.4C h=1.6% 404.000MHz Type=RS41-SGP TxOff=8h28m rdzTTGOsonde
EA1JAY-16S29503572022-12-07 13:12:4943.2753-7.749211497027077Clb=-23.8m/s p=16.9hPa t=-62.0C h=1.4% 404.000MHz Type=RS41-SGP TxOff=8h29m rdzTTGOsonde
CT7AUS-11S29503572022-12-07 13:12:4543.2762-7.749971486727206Clb=-21.8m/s t=-61.6C h=1.3% p=16.6hPa 404.000 MHz Type=RS41-SGP ser=S2950357 Radiosonde
EA1JAY-16S29503572022-12-07 13:12:3243.2776-7.751171443727556Clb=-22.7m/s p=15.7hPa t=-62.8C h=1.6% 404.000MHz Type=RS41-SGP TxOff=8h29m rdzTTGOsonde
EB4FMT-14S29503572022-12-07 13:12:2143.2787-7.752661254827924Clb=-24.9m/s t=-62.0C h=1.5% p=14.7hPa 404.001 MHz Type=RS41-SGP ser=S2950357 Radiosonde auto_rx v1.5.9
CT7AUS-11S29503572022-12-07 13:12:1843.2788-7.752791274827948Clb=-25.6m/s t=-62.0C h=1.6% p=14.6hPa 404.000 MHz Type=RS41-SGP ser=S2950357 Radiosonde
EA1JAY-16S29503572022-12-07 13:12:1443.2789-7.753031284427997Clb=-24.4m/s p=14.5hPa t=-61.7C h=1.5% 404.000MHz Type=RS41-SGP rdzTTGOsonde
EA1JAY-16S29503572022-12-07 13:11:5843.2804-7.755791195628530Clb=-24.3m/s p=13.3hPa t=-61.3C h=1.5% 404.000MHz Type=RS41-SGP rdzTTGOsonde
CT7AUS-11S29503572022-12-07 13:11:5343.2808-7.757051135428706Clb=-26.0m/s t=-60.6C h=1.4% p=12.9hPa 404.000 MHz Type=RS41-SGP ser=S2950357 Radiosonde
EA1JAY-16S29503572022-12-07 13:11:4243.2816-7.759771136129046Clb=-24.2m/s p=12.2hPa t=-60.2C h=1.4% 404.000MHz Type=RS41-SGP rdzTTGOsonde
EB4FMT-14S29503572022-12-07 13:11:3143.2824-7.762491066729213Clb=4.4m/s t=-59.3C h=1.2% p=11.8hPa 404.001 MHz Type=RS41-SGP ser=S2950357 Radiosonde auto_rx v1.5.9
CT7AUS-11S29503572022-12-07 13:11:2643.2827-7.763591126729186Clb=4.4m/s t=-59.4C h=1.2% p=11.9hPa 404.000 MHz Type=RS41-SGP ser=S2950357 Radiosonde
EA1JAY-16S29503572022-12-07 13:11:2343.2828-7.763991086129176Clb=5.9m/s p=11.9hPa t=-59.6C h=1.2% 404.000MHz Type=RS41-SGP rdzTTGOsonde
EA1JAY-16S29503572022-12-07 13:11:0543.2841-7.76841156329079Clb=4.5m/s p=12.1hPa t=-60.2C h=1.3% 404.000MHz Type=RS41-SGP rdzTTGOsonde
EB4FMT-14S29503572022-12-07 13:11:0443.2842-7.768781206329069Clb=4.4m/s t=-60.2C h=1.3% p=12.1hPa 404.001 MHz Type=RS41-SGP ser=S2950357 Radiosonde auto_rx v1.5.9
CT7AUS-11S29503572022-12-07 13:10:5943.2846-7.770361016729038Clb=3.8m/s t=-60.4C h=1.3% p=12.2hPa 404.000 MHz Type=RS41-SGP ser=S2950357 Radiosonde
EA1JAY-16S29503572022-12-07 13:10:4743.2855-7.772951105928983Clb=4.6m/s p=12.3hPa t=-60.9C h=1.4% 404.000MHz Type=RS41-SGP rdzTTGOsonde
EB4FMT-14S29503572022-12-07 13:10:3843.2864-7.775251144828923Clb=5.3m/s t=-60.7C h=1.3% p=12.4hPa 404.001 MHz Type=RS41-SGP ser=S2950357 Radiosonde auto_rx v1.5.9
CT7AUS-11S29503572022-12-07 13:10:3243.2865-7.776191015728899Clb=4.8m/s t=-60.7C h=1.4% p=12.5hPa 404.000 MHz Type=RS41-SGP ser=S2950357 Radiosonde
EA1JAY-16S29503572022-12-07 13:10:2543.2867-7.776951085928880Clb=5.4m/s p=12.5hPa t=-60.4C h=1.3% 404.000MHz Type=RS41-SGP rdzTTGOsonde
EB4FMT-14S29503572022-12-07 13:10:1043.2877-7.780671097028790Clb=4.8m/s t=-60.9C h=1.3% p=12.7hPa 404.001 MHz Type=RS41-SGP ser=S2950357 Radiosonde auto_rx v1.5.9
EA1JAY-16S29503572022-12-07 13:10:0643.2879-7.781381026928776Clb=5.3m/s p=12.7hPa t=-60.9C h=1.3% 404.000MHz Type=RS41-SGP rdzTTGOsonde
CT7AUS-11S29503572022-12-07 13:10:0143.288-7.782431076328752Clb=4.7m/s t=-60.7C h=1.3% p=12.8hPa 404.000 MHz Type=RS41-SGP ser=S2950357 Radiosonde
EA1JAY-16S29503572022-12-07 13:09:4343.2888-7.785511035028677Clb=5.0m/s p=13.0hPa t=-60.9C h=1.4% 404.000MHz Type=RS41-SGP rdzTTGOsonde
EB4FMT-14S29503572022-12-07 13:09:3843.2891-7.786391165428648Clb=5.5m/s t=-61.1C h=1.3% p=13.0hPa 404.001 MHz Type=RS41-SGP ser=S2950357 Radiosonde auto_rx v1.5.9
CT7AUS-11S29503572022-12-07 13:09:2843.2896-7.787821154628601Clb=5.9m/s t=-61.4C h=1.4% p=13.1hPa 404.000 MHz Type=RS41-SGP ser=S2950357 Radiosonde
EA1JAY-16S29503572022-12-07 13:09:2143.2898-7.788451293728574Clb=5.5m/s p=13.2hPa t=-61.2C h=1.4% 404.000MHz Type=RS41-SGP rdzTTGOsonde
EB4FMT-14S29503572022-12-07 13:09:0743.2907-7.790251294128488Clb=5.9m/s t=-60.9C h=1.4% p=13.4hPa 404.001 MHz Type=RS41-SGP ser=S2950357 Radiosonde auto_rx v1.5.9
EA1JAY-16S29503572022-12-07 13:08:5943.2911-7.790781264428460Clb=5.0m/s p=13.4hPa t=-60.9C h=1.4% 404.000MHz Type=RS41-SGP rdzTTGOsonde
CT7AUS-11S29503572022-12-07 13:08:5443.2915-7.791451295228432Clb=4.9m/s t=-60.7C h=1.3% p=13.5hPa 404.000 MHz Type=RS41-SGP ser=S2950357 Radiosonde
EA1JAY-16S29503572022-12-07 13:08:3843.2925-7.793411235728349Clb=5.3m/s p=13.7hPa t=-60.1C h=1.3% 404.000MHz Type=RS41-SGP rdzTTGOsonde
EB4FMT-14S29503572022-12-07 13:08:3443.2928-7.794161114128320Clb=5.9m/s t=-60.3C h=1.3% p=13.7hPa 404.001 MHz Type=RS41-SGP ser=S2950357 Radiosonde auto_rx v1.5.9
CT7AUS-11S29503572022-12-07 13:08:2143.2934-7.795771064828260Clb=6.0m/s t=-60.4C h=1.4% p=13.9hPa 404.000 MHz Type=RS41-SGP ser=S2950357 Radiosonde
EA1JAY-16S29503572022-12-07 13:08:1643.2935-7.79631053328237Clb=6.6m/s p=13.9hPa t=-60.7C h=1.4% 404.000MHz Type=RS41-SGP rdzTTGOsonde
EB4FMT-14S29503572022-12-07 13:08:0243.2941-7.798511233928155Clb=5.2m/s t=-60.6C h=1.3% p=14.1hPa 404.001 MHz Type=RS41-SGP ser=S2950357 Radiosonde auto_rx v1.5.9
EA1JAY-16S29503572022-12-07 13:07:5543.2945-7.799551114828118Clb=5.3m/s p=14.2hPa t=-60.6C h=1.4% 404.000MHz Type=RS41-SGP rdzTTGOsonde
CT7AUS-11S29503572022-12-07 13:07:4943.2948-7.80031164428091Clb=4.7m/s t=-60.4C h=1.3% p=14.3hPa 404.000 MHz Type=RS41-SGP ser=S2950357 Radiosonde
EA1JAY-16S29503572022-12-07 13:07:3143.2958-7.802171174328009Clb=6.1m/s p=14.5hPa t=-60.0C h=1.3% 404.000MHz Type=RS41-SGP rdzTTGOsonde
EB4FMT-14S29503572022-12-07 13:07:2843.2961-7.80341245027963Clb=6.5m/s t=-60.0C h=1.3% p=14.6hPa 404.001 MHz Type=RS41-SGP ser=S2950357 Radiosonde auto_rx v1.5.9
CT7AUS-11S29503572022-12-07 13:07:1243.2967-7.80468984827914Clb=5.7m/s t=-60.5C h=1.3% p=14.7hPa 404.000 MHz Type=RS41-SGP ser=S2950357 Radiosonde
EA1JAY-16S29503572022-12-07 13:07:0143.2969-7.805421205927894Clb=5.0m/s p=14.7hPa t=-60.5C h=1.4% 404.000MHz Type=RS41-SGP rdzTTGOsonde
EB4FMT-14S29503572022-12-07 13:06:4943.2976-7.807151024627829Clb=5.3m/s t=-60.8C h=1.4% p=14.9hPa 404.001 MHz Type=RS41-SGP ser=S2950357 Radiosonde auto_rx v1.5.9
EA1JAY-16S29503572022-12-07 13:06:3743.298-7.80811394427781Clb=5.9m/s p=15.0hPa t=-60.5C h=1.4% 404.000MHz Type=RS41-SGP rdzTTGOsonde
CT7AUS-11S29503572022-12-07 13:06:3343.2984-7.808771164127749Clb=4.5m/s t=-60.4C h=-1.0% p=15.1hPa 404.000 MHz Type=RS41-SGP ser=S2950357 Radiosonde
EB4FMT-14S29503572022-12-07 13:06:1343.2991-7.81011223327674Clb=5.5m/s t=-60.9C h=1.3% p=15.3hPa 404.001 MHz Type=RS41-SGP ser=S2950357 Radiosonde auto_rx v1.5.9
EA1JAY-16S29503572022-12-07 13:06:1043.2992-7.810191233527669Clb=5.2m/s p=15.3hPa t=-60.9C h=1.4% 404.000MHz Type=RS41-SGP rdzTTGOsonde
CT7AUS-11S29503572022-12-07 13:05:5443.3004-7.811391443327595Clb=4.7m/s t=-61.3C h=-1.0% p=-1.0hPa 404.000 MHz Type=RS41 ser=S2950357 Radiosonde
EA1JAY-16S29503572022-12-07 13:05:4643.3007-7.811711533127571Clb=5.7m/s p=15.5hPa t=-61.2C h=1.4% 404.000MHz Type=RS41-SGP rdzTTGOsonde
EB4FMT-14S29503572022-12-07 13:05:3643.3022-7.813021433927478Clb=5.7m/s t=-61.5C h=1.4% p=15.8hPa 404.001 MHz Type=RS41-SGP ser=S2950357 Radiosonde auto_rx v1.5.9
EA1JAY-16S29503572022-12-07 13:05:1743.3022-7.813021443927478Clb=5.7m/s p=15.8hPa t=-61.5C h=1.4% 404.000MHz Type=RS41-SGP rdzTTGOsonde
EA1JAY-16S29503572022-12-07 13:04:4943.3035-7.814081572627381Clb=5.2m/s p=16.0hPa t=-62.1C h=1.5% 404.000MHz Type=RS41-SGP rdzTTGOsonde
EA1JAY-16S29503572022-12-07 13:04:2243.3056-7.815591525927278Clb=4.5m/s p=16.3hPa t=-61.3C h=1.5% 404.000MHz Type=RS41-SGP rdzTTGOsonde
EA1JAY-16S29503572022-12-07 13:03:5843.3083-7.817641496527179Clb=5.5m/s p=16.6hPa t=-60.7C h=1.4% 404.000MHz Type=RS41-SGP rdzTTGOsonde
EB4FMT-14S29503572022-12-07 13:03:4143.3107-7.819461537827101Clb=5.1m/s t=-61.1C h=1.4% p=16.8hPa 404.001 MHz Type=RS41-SGP ser=S2950357 Radiosonde auto_rx v1.5.9
EA1JAY-16S29503572022-12-07 13:03:3243.3116-7.820091497827077Clb=4.0m/s p=16.8hPa t=-61.2C h=1.5% 404.000MHz Type=RS41-SGP rdzTTGOsonde
EA1JAY-16S29503572022-12-07 13:03:0543.3146-7.823141416726973Clb=5.9m/s p=17.2hPa t=-60.9C h=1.4% 404.000MHz Type=RS41-SGP rdzTTGOsonde
EA1JAY-16S29503572022-12-07 13:02:3943.3173-7.826371375926868Clb=4.8m/s p=17.4hPa t=-61.0C h=1.4% 404.000MHz Type=RS41-SGP rdzTTGOsonde
EB4FMT-14S29503572022-12-07 13:02:2043.3187-7.828371325926803Clb=5.4m/s t=-61.1C h=1.3% p=17.6hPa 404.001 MHz Type=RS41-SGP ser=S2950357 Radiosonde auto_rx v1.5.9
EA1JAY-16S29503572022-12-07 13:02:1043.3194-7.82921355626768Clb=5.6m/s p=17.7hPa t=-61.4C h=1.4% 404.000MHz Type=RS41-SGP rdzTTGOsonde
EA1JAY-16S29503572022-12-07 13:01:4143.3211-7.83221274826664Clb=4.9m/s p=18.0hPa t=-61.8C h=1.4% 404.000MHz Type=RS41-SGP rdzTTGOsonde
EB4FMT-14S29503572022-12-07 13:01:3943.3212-7.832461294826654Clb=5.1m/s t=-62.0C h=1.4% p=18.1hPa 404.001 MHz Type=RS41-SGP ser=S2950357 Radiosonde auto_rx v1.5.9
EA1JAY-16S29503572022-12-07 13:01:1043.3227-7.834621385026563Clb=4.3m/s p=18.3hPa t=-62.2C h=1.5% 404.000MHz Type=RS41-SGP rdzTTGOsonde
EB4FMT-14S29503572022-12-07 13:00:5243.3238-7.836291315026501Clb=4.3m/s t=-62.0C h=1.4% p=18.5hPa 404.001 MHz Type=RS41-SGP ser=S2950357 Radiosonde auto_rx v1.5.9
EA1JAY-16S29503572022-12-07 13:00:3543.3246-7.837631286126455Clb=5.7m/s p=18.6hPa t=-61.8C h=1.5% 404.000MHz Type=RS41-SGP rdzTTGOsonde
EB4FMT-14S29503572022-12-07 13:00:0043.3263-7.840891225226348Clb=5.6m/s t=-61.7C h=1.4% p=19.0hPa 404.001 MHz Type=RS41-SGP ser=S2950357 Radiosonde auto_rx v1.5.9
EA1JAY-16S29503572022-12-07 12:59:5843.3263-7.840891245426348Clb=5.6m/s p=19.0hPa t=-61.7C h=1.5% 404.000MHz Type=RS41-SGP rdzTTGOsonde
EA1JAY-16S29503572022-12-07 12:59:3843.3279-7.843751274326237Clb=4.5m/s p=19.3hPa t=-61.7C h=1.5% 404.000MHz Type=RS41-SGP rdzTTGOsonde
EB4FMT-14S29503572022-12-07 12:59:3043.3283-7.844621173926197Clb=4.5m/s t=-61.6C h=1.4% p=19.5hPa 404.001 MHz Type=RS41-SGP ser=S2950357 Radiosonde auto_rx v1.5.9
EA1JAY-16S29503572022-12-07 12:59:1643.329-7.845711353526136Clb=3.9m/s p=19.7hPa t=-62.2C h=1.5% 404.000MHz Type=RS41-SGP rdzTTGOsonde
EB4FMT-14S29503572022-12-07 12:59:0043.3304-7.84731314326046Clb=6.0m/s t=-62.4C h=1.5% p=19.9hPa 404.001 MHz Type=RS41-SGP ser=S2950357 Radiosonde auto_rx v1.5.9
EA1JAY-16S29503572022-12-07 12:58:5643.3306-7.847531254126036Clb=4.2m/s p=20.0hPa t=-62.5C h=1.5% 404.000MHz Type=RS41-SGP rdzTTGOsonde
EA1JAY-16S29503572022-12-07 12:58:3743.3317-7.849781213525936Clb=5.7m/s p=20.3hPa 404.000MHz Type=RS41-SGP rdzTTGOsonde
EB4FMT-14S29503572022-12-07 12:58:3043.332-7.85061113725894Clb=5.5m/s t=-62.9C h=1.5% p=20.5hPa 404.001 MHz Type=RS41-SGP ser=S2950357 Radiosonde auto_rx v1.5.9
EA1JAY-16S29503572022-12-07 12:58:1643.3323-7.851781061925833Clb=5.3m/s 404.000MHz Type=RS41 rdzTTGOsonde
EA4EKH-11S29503572022-12-07 12:58:0843.3362-7.856971832025018Clb=4.8m/s t=-62.0C h=1.5% p=23.7hPa 404.001 MHz Type=RS41-SGP ser=S2950357 Radiosonde
EB4FMT-14S29503572022-12-07 12:57:5943.3366-7.857041642224974Clb=4.7m/s t=-61.9C h=1.5% p=23.8hPa 404.001 MHz Type=RS41-SGP ser=S2950357 Radiosonde auto_rx v1.5.9
EA4EKH-11S29503572022-12-07 12:57:5843.3379-7.857471791924838Clb=4.1m/s t=-61.8C h=1.4% p=24.3hPa 404.001 MHz Type=RS41-SGP ser=S2950357 Radiosonde
EB4FMT-14S29503572022-12-07 12:57:5743.3379-7.857471752224834Clb=3.5m/s t=-61.7C h=1.4% p=24.3hPa 404.001 MHz Type=RS41-SGP ser=S2950357 Radiosonde auto_rx v1.5.9
EA4EKH-11S29503572022-12-07 12:57:5643.3393-7.858031623524741Clb=5.0m/s t=-61.2C h=1.4% p=24.8hPa 404.001 MHz Type=RS41-SGP ser=S2950357 Radiosonde
EB4FMT-14S29503572022-12-07 12:57:5543.3399-7.858231533524696Clb=5.5m/s t=-61.3C h=1.4% p=24.9hPa 404.001 MHz Type=RS41-SGP ser=S2950357 Radiosonde auto_rx v1.5.9
EA4EKH-11S29503572022-12-07 12:57:5443.3418-7.858811783024597Clb=4.0m/s t=-61.3C h=1.4% p=25.3hPa 404.001 MHz Type=RS41-SGP ser=S2950357 Radiosonde
EB4FMT-14S29503572022-12-07 12:57:5343.3423-7.859021593124568Clb=4.9m/s t=-61.3C h=1.4% p=25.4hPa 404.001 MHz Type=RS41-SGP ser=S2950357 Radiosonde auto_rx v1.5.9
EA4EKH-11S29503572022-12-07 12:57:5243.3437-7.859771612624471Clb=3.8m/s t=-61.8C h=1.5% p=25.9hPa 404.001 MHz Type=RS41-SGP ser=S2950357 Radiosonde
EB4FMT-14S29503572022-12-07 12:57:5143.3442-7.860191491924435Clb=4.4m/s t=-61.9C h=1.5% p=26.0hPa 404.001 MHz Type=RS41-SGP ser=S2950357 Radiosonde auto_rx v1.5.9
EB4FMT-14S29503572022-12-07 12:57:5043.3456-7.861051541724304Clb=4.5m/s t=-62.5C h=1.5% p=26.6hPa 404.001 MHz Type=RS41-SGP ser=S2950357 Radiosonde auto_rx v1.5.9
EA4EKH-11S29503572022-12-07 12:57:4943.3469-7.86121762024195Clb=5.3m/s t=-62.9C h=1.6% p=27.0hPa 404.001 MHz Type=RS41-SGP ser=S2950357 Radiosonde
EB4FMT-14S29503572022-12-07 12:57:4843.3472-7.861261662224168Clb=4.4m/s t=-62.7C h=1.6% p=27.1hPa 404.001 MHz Type=RS41-SGP ser=S2950357 Radiosonde auto_rx v1.5.9
EB4FMT-14S29503572022-12-07 12:57:4643.3493-7.861461962824026Clb=4.7m/s t=-62.2C h=1.5% p=27.8hPa 404.001 MHz Type=RS41-SGP ser=S2950357 Radiosonde auto_rx v1.5.9
EA1JAY-15S29503572022-12-07 12:57:4543.3497-7.861321912824000Clb=5.2m/s p=27.9hPa t=-62.4C h=1.6% 404.000MHz Type=RS41-SGP rdzTTGOsonde
EA4EKH-11S29503572022-12-07 12:57:4443.3515-7.860712022823886Clb=4.1m/s t=-62.4C h=1.5% p=28.4hPa 404.001 MHz Type=RS41-SGP ser=S2950357 Radiosonde
EA1JAY-15S29503572022-12-07 12:57:3743.3534-7.860351943923784Clb=5.0m/s p=28.9hPa t=-62.0C h=1.6% 404.000MHz Type=RS41-SGP rdzTTGOsonde
EA4EKH-11S29503572022-12-07 12:57:2843.3542-7.859991854123739Clb=5.9m/s t=-62.1C h=1.5% p=29.1hPa 404.001 MHz Type=RS41-SGP ser=S2950357 Radiosonde
EB4FMT-14S29503572022-12-07 12:57:2443.3545-7.861744323723Clb=5.2m/s t=-62.1C h=1.6% p=29.2hPa 404.001 MHz Type=RS41-SGP ser=S2950357 Radiosonde auto_rx v1.5.9
EA1JAY-15S29503572022-12-07 12:57:0643.3553-7.859951953723682Clb=5.4m/s p=29.4hPa t=-61.9C h=1.6% 404.000MHz Type=RS41-SGP rdzTTGOsonde
EA4EKH-11S29503572022-12-07 12:56:3343.3571-7.859621873923582Clb=5.1m/s t=-61.8C h=1.6% p=29.9hPa 404.001 MHz Type=RS41-SGP ser=S2950357 Radiosonde
EB4FMT-14S29503572022-12-07 12:56:2943.3573-7.859581913323573Clb=4.3m/s t=-61.7C h=1.6% p=29.9hPa 404.001 MHz Type=RS41-SGP ser=S2950357 Radiosonde auto_rx v1.5.9
EA1JAY-15S29503572022-12-07 12:56:2243.3574-7.859531982623562Clb=5.3m/s p=30.0hPa t=-61.6C h=1.6% 404.000MHz Type=RS41-SGP rdzTTGOsonde
EA1JAY-15S29503572022-12-07 12:55:3743.3592-7.859311742823440Clb=5.7m/s p=30.6hPa t=-61.6C h=1.5% 404.000MHz Type=RS41-SGP rdzTTGOsonde
EA4EKH-11S29503572022-12-07 12:55:3643.3597-7.85931952823407Clb=4.4m/s t=-61.7C h=1.5% p=30.7hPa 404.001 MHz Type=RS41-SGP ser=S2950357 Radiosonde
EB4FMT-14S29503572022-12-07 12:55:3543.3608-7.859221873723330Clb=5.1m/s t=-62.0C h=1.6% p=31.1hPa 404.001 MHz Type=RS41-SGP ser=S2950357 Radiosonde auto_rx v1.5.9
EB4FMT-14S29503572022-12-07 12:54:4543.3616-7.859421551923283Clb=4.9m/s t=-62.1C h=1.6% p=31.4hPa 404.001 MHz Type=RS41-SGP ser=S2950357 Radiosonde auto_rx v1.5.9
EA4EKH-11S29503572022-12-07 12:54:4443.3616-7.859421551923283Clb=4.9m/s t=-62.1C h=1.6% p=31.4hPa 404.001 MHz Type=RS41-SGP ser=S2950357 Radiosonde
EA1JAY-15S29503572022-12-07 12:54:4343.3616-7.859421562023283Clb=4.9m/s p=31.4hPa t=-62.1C h=1.6% 404.000MHz Type=RS41-SGP rdzTTGOsonde
EA1JAY-15S29503572022-12-07 12:54:0943.3633-7.860071703723175Clb=4.4m/s p=31.9hPa t=-61.7C h=1.6% 404.000MHz Type=RS41-SGP rdzTTGOsonde
EB4FMT-14S29503572022-12-07 12:53:5643.3638-7.860291501923149Clb=4.9m/s t=-62.2C h=1.5% p=32.1hPa 404.001 MHz Type=RS41-SGP ser=S2950357 Radiosonde auto_rx v1.5.9
EA4EKH-11S29503572022-12-07 12:53:5443.3638-7.860321391523145Clb=3.4m/s t=-62.2C h=-1.0% p=32.1hPa 404.001 MHz Type=RS41-SGP ser=S2950357 Radiosonde
EA1JAY-15S29503572022-12-07 12:53:3543.3646-7.860821493123100Clb=4.2m/s p=32.3hPa t=-61.9C h=1.6% 404.000MHz Type=RS41-SGP rdzTTGOsonde
EB4FMT-14S29503572022-12-07 12:53:0543.3655-7.861761322223024Clb=3.2m/s t=-63.0C h=1.6% p=32.8hPa 404.001 MHz Type=RS41-SGP ser=S2950357 Radiosonde auto_rx v1.5.9
EA4EKH-11S29503572022-12-07 12:53:0143.3656-7.861851391723015Clb=5.0m/s t=-273.0C h=-1.0% p=32.8hPa 404.001 MHz Type=RS41-SGP ser=S2950357 Radiosonde
EA1JAY-15S29503572022-12-07 12:52:5943.3656-7.861851411723015Clb=5.0m/s p=32.8hPa t=-63.0C h=1.7% 404.000MHz Type=RS41-SGP rdzTTGOsonde
EA1JAY-15S29503572022-12-07 12:52:1643.3658-7.8623545622928Clb=4.6m/s p=33.2hPa t=-62.8C h=1.7% 404.000MHz Type=RS41-SGP rdzTTGOsonde
EB4FMT-14S29503572022-12-07 12:52:0243.3658-7.86243154222891Clb=5.3m/s t=-62.6C h=1.7% p=33.4hPa 404.001 MHz Type=RS41-SGP ser=S2950357 Radiosonde auto_rx v1.5.9
EA4EKH-11S29503572022-12-07 12:51:5643.3659-7.86241277422879Clb=4.4m/s t=-273.0C h=-1.0% p=-1.0hPa 404.001 MHz Type=RS41 ser=S2950357 Radiosonde
EA1JAY-15S29503572022-12-07 12:51:3243.3659-7.86236189722830Clb=4.4m/s p=33.8hPa t=-62.2C h=1.6% 404.000MHz Type=RS41-SGP rdzTTGOsonde
EB4FMT-14S29503572022-12-07 12:51:0543.3662-7.86223199922760Clb=4.3m/s t=-62.0C h=1.5% p=34.2hPa 404.001 MHz Type=RS41-SGP ser=S2950357 Radiosonde auto_rx v1.5.9
EA1JAY-15S29503572022-12-07 12:50:5543.3662-7.86217226922737Clb=5.3m/s p=34.3hPa t=-62.0C h=1.6% 404.000MHz Type=RS41-SGP rdzTTGOsonde
EB4FMT-14S29503572022-12-07 12:50:1343.367-7.861462201522623Clb=4.2m/s t=-61.3C h=1.6% p=34.9hPa 404.001 MHz Type=RS41-SGP ser=S2950357 Radiosonde auto_rx v1.5.9
EA1JAY-15S29503572022-12-07 12:49:2943.3681-7.860352203122517Clb=4.8m/s p=35.6hPa t=-60.9C h=1.6% 404.000MHz Type=RS41-SGP rdzTTGOsonde
EB4FMT-14S29503572022-12-07 12:49:1643.3685-7.859922043122485Clb=3.9m/s t=-60.8C h=1.5% p=35.7hPa 404.001 MHz Type=RS41-SGP ser=S2950357 Radiosonde auto_rx v1.5.9
EA1JAY-15S29503572022-12-07 12:48:2743.3697-7.858572412022376Clb=4.2m/s p=36.4hPa t=-60.6C h=1.5% 404.000MHz Type=RS41-SGP rdzTTGOsonde
EB4FMT-14S29503572022-12-07 12:48:1843.3699-7.858322152222355Clb=3.9m/s t=-60.4C h=1.5% p=36.5hPa 404.001 MHz Type=RS41-SGP ser=S2950357 Radiosonde auto_rx v1.5.9
EA1JAY-15S29503572022-12-07 12:47:4843.3705-7.857482173122291Clb=4.0m/s p=36.9hPa t=-60.0C h=1.4% 404.000MHz Type=RS41-SGP rdzTTGOsonde
EB4FMT-14S29503572022-12-07 12:47:2243.3713-7.856522093122225Clb=4.9m/s t=-60.0C h=1.4% p=37.3hPa 404.001 MHz Type=RS41-SGP ser=S2950357 Radiosonde auto_rx v1.5.9
EA1JAY-15S29503572022-12-07 12:47:0343.3717-7.856182163022199Clb=4.1m/s p=37.4hPa t=-60.2C h=1.4% 404.000MHz Type=RS41-SGP rdzTTGOsonde
EA1JAY-15S29503572022-12-07 12:46:2743.3727-7.855232272222113Clb=3.6m/s p=37.9hPa t=-60.3C h=1.5% 404.000MHz Type=RS41-SGP rdzTTGOsonde
EB4FMT-14S29503572022-12-07 12:46:2043.3729-7.854982412222096Clb=3.9m/s t=-60.1C h=1.4% p=38.0hPa 404.001 MHz Type=RS41-SGP ser=S2950357 Radiosonde auto_rx v1.5.9
EA1JAY-15S29503572022-12-07 12:45:2743.3743-7.853731952221979Clb=3.3m/s p=38.8hPa t=-60.4C h=1.5% 404.000MHz Type=RS41-SGP rdzTTGOsonde
EB4FMT-14S29503572022-12-07 12:45:2543.3744-7.853672032421971Clb=4.3m/s t=-60.4C h=1.4% p=38.8hPa 404.001 MHz Type=RS41-SGP ser=S2950357 Radiosonde auto_rx v1.5.9
EA1JAY-15S29503572022-12-07 12:44:4843.3754-7.85332022021896Clb=4.2m/s p=39.3hPa t=-60.3C h=1.5% 404.000MHz Type=RS41-SGP rdzTTGOsonde
EB4FMT-14S29503572022-12-07 12:44:2643.3759-7.8532122421847Clb=4.2m/s t=-60.5C h=1.5% p=39.6hPa 404.001 MHz Type=RS41-SGP ser=S2950357 Radiosonde auto_rx v1.5.9
EA1JAY-15S29503572022-12-07 12:44:0143.3763-7.852632091121805Clb=4.7m/s p=39.9hPa t=-60.3C h=1.5% 404.000MHz Type=RS41-SGP rdzTTGOsonde
EB4FMT-14S29503572022-12-07 12:43:4443.377-7.851872251521726Clb=3.9m/s t=-60.0C h=1.4% p=40.4hPa 404.001 MHz Type=RS41-SGP ser=S2950357 Radiosonde auto_rx v1.5.9
EA1JAY-15S29503572022-12-07 12:43:3743.3771-7.851662342221710Clb=3.7m/s p=40.5hPa t=-59.9C h=1.5% 404.000MHz Type=RS41-SGP rdzTTGOsonde
EA1JAY-15S29503572022-12-07 12:43:1643.3777-7.85072251321611Clb=4.6m/s p=41.2hPa t=-60.1C h=1.5% 404.000MHz Type=RS41-SGP rdzTTGOsonde
EB4FMT-14S29503572022-12-07 12:43:1443.3777-7.850632221521602Clb=3.5m/s t=-60.1C h=1.5% p=41.2hPa 404.001 MHz Type=RS41-SGP ser=S2950357 Radiosonde auto_rx v1.5.9
EA1JAY-15S29503572022-12-07 12:42:4743.378-7.8502264721506Clb=3.8m/s p=41.9hPa t=-59.8C h=1.5% 404.000MHz Type=RS41-SGP rdzTTGOsonde
EB4FMT-14S29503572022-12-07 12:42:3843.3781-7.85015113221477Clb=3.7m/s t=-59.8C h=1.5% p=42.0hPa 404.001 MHz Type=RS41-SGP ser=S2950357 Radiosonde auto_rx v1.5.9
EA1JAY-15S29503572022-12-07 12:42:1843.3781-7.85042901121416Clb=4.3m/s p=42.5hPa t=-59.7C h=1.5% 404.000MHz Type=RS41-SGP rdzTTGOsonde
EB4FMT-14S29503572022-12-07 12:42:0143.3781-7.850991031921345Clb=4.0m/s t=-59.9C h=1.5% p=43.0hPa 404.001 MHz Type=RS41-SGP ser=S2950357 Radiosonde auto_rx v1.5.9
EA1JAY-15S29503572022-12-07 12:41:5343.3782-7.85127851521325Clb=3.8m/s p=43.1hPa t=-59.9C h=1.5% 404.000MHz Type=RS41-SGP rdzTTGOsonde
EB4FMT-14S29503572022-12-07 12:41:3043.3787-7.852521312021217Clb=5.0m/s t=-59.7C h=1.5% p=43.8hPa 404.001 MHz Type=RS41-SGP ser=S2950357 Radiosonde auto_rx v1.5.9
EA1JAY-15S29503572022-12-07 12:41:2843.3787-7.852511322021217Clb=5.0m/s p=43.8hPa t=-59.7C h=1.5% 404.000MHz Type=RS41-SGP rdzTTGOsonde
EA1JAY-15S29503572022-12-07 12:41:0743.3803-7.853361724421086Clb=4.5m/s p=44.5hPa t=-61.0C h=1.6% 404.000MHz Type=RS41-SGP rdzTTGOsonde
EB4FMT-14S29503572022-12-07 12:40:4943.3973-7.871581362418657Clb=4.3m/s t=-61.2C h=1.9% p=66.3hPa 404.001 MHz Type=RS41-SGP ser=S2950357 Radiosonde auto_rx v1.5.9
EB4FMT-14S29503572022-12-07 12:39:4143.398-7.873081051318534Clb=3.9m/s t=-61.6C h=2.0% p=67.7hPa 404.001 MHz Type=RS41-SGP ser=S2950357 Radiosonde auto_rx v1.5.9
EB4FMT-14S29503572022-12-07 12:38:2443.3984-7.874681052218417Clb=3.7m/s t=-62.4C h=2.1% p=69.0hPa 404.001 MHz Type=RS41-SGP ser=S2950357 Radiosonde auto_rx v1.5.9
EB4FMT-14S29503572022-12-07 12:37:1743.3995-7.876211432818298Clb=3.8m/s t=-62.4C h=2.1% p=70.4hPa 404.001 MHz Type=RS41-SGP ser=S2950357 Radiosonde auto_rx v1.5.9
EB4FMT-14S29503572022-12-07 12:36:0643.4008-7.878521193318177Clb=4.7m/s t=-62.4C h=2.1% p=71.7hPa 404.001 MHz Type=RS41-SGP ser=S2950357 Radiosonde auto_rx v1.5.9
EB4FMT-14S29503572022-12-07 12:34:5543.4011-7.88147862818052Clb=3.7m/s t=-61.7C h=2.1% p=73.2hPa 404.001 MHz Type=RS41-SGP ser=S2950357 Radiosonde auto_rx v1.5.9
EB4FMT-14S29503572022-12-07 12:33:4343.4009-7.88421842417928Clb=3.5m/s t=-61.3C h=2.0% p=74.7hPa 404.001 MHz Type=RS41-SGP ser=S2950357 Radiosonde auto_rx v1.5.9
EB4FMT-14S29503572022-12-07 12:32:3543.4006-7.88634581917805Clb=3.7m/s t=-61.3C h=2.1% p=76.2hPa 404.001 MHz Type=RS41-SGP ser=S2950357 Radiosonde auto_rx v1.5.9
EB4FMT-14S29503572022-12-07 12:31:2243.4-7.88766651717682Clb=3.8m/s t=-61.6C h=2.2% p=77.7hPa 404.001 MHz Type=RS41-SGP ser=S2950357 Radiosonde auto_rx v1.5.9
EB4FMT-14S29503572022-12-07 12:30:0943.3995-7.88969692017560Clb=3.6m/s t=-61.8C h=2.3% p=79.3hPa 404.001 MHz Type=RS41-SGP ser=S2950357 Radiosonde auto_rx v1.5.9
EB4FMT-14S29503572022-12-07 12:28:5543.3992-7.8912741517438Clb=4.1m/s t=-61.3C h=2.2% p=80.9hPa 404.001 MHz Type=RS41-SGP ser=S2950357 Radiosonde auto_rx v1.5.9
EB4FMT-14S29503572022-12-07 12:27:4043.3983-7.89278471717318Clb=3.5m/s t=-61.4C h=2.3% p=82.4hPa 404.001 MHz Type=RS41-SGP ser=S2950357 Radiosonde auto_rx v1.5.9
EB4FMT-14S29503572022-12-07 12:26:2243.3975-7.89413721117197Clb=4.5m/s t=-61.0C h=2.3% p=84.0hPa 404.001 MHz Type=RS41-SGP ser=S2950357 Radiosonde auto_rx v1.5.9
EB4FMT-14S29503572022-12-07 12:25:1143.3973-7.89571722617079Clb=3.3m/s t=-61.3C h=2.3% p=85.7hPa 404.001 MHz Type=RS41-SGP ser=S2950357 Radiosonde auto_rx v1.5.9
EB4FMT-14S29503572022-12-07 12:24:0143.3967-7.89847713716958Clb=3.4m/s t=-61.5C h=2.4% p=87.4hPa 404.001 MHz Type=RS41-SGP ser=S2950357 Radiosonde auto_rx v1.5.9
EB4FMT-14S29503572022-12-07 12:23:4243.3957-7.90152583316836Clb=4.6m/s t=-62.0C h=2.5% p=89.1hPa 404.001 MHz Type=RS41-SGP ser=S2950357 Radiosonde auto_rx v1.5.9
EB4FMT-14S29503572022-12-07 12:23:0043.3945-7.90415532816715Clb=4.5m/s t=-61.8C h=2.4% p=90.9hPa 404.001 MHz Type=RS41-SGP ser=S2950357 Radiosonde auto_rx v1.5.9
EB4FMT-14S29503572022-12-07 12:22:4743.3934-7.90615502016594Clb=3.9m/s t=-61.7C h=2.5% p=92.7hPa 404.001 MHz Type=RS41-SGP ser=S2950357 Radiosonde auto_rx v1.5.9
EA1JAY-15S29503572022-12-07 12:22:4543.3933-7.90633662216583Clb=4.6m/s p=92.8hPa t=-61.7C h=2.5% 404.000MHz Type=RS41-SGP rdzTTGOsonde
EA1JAY-15S29503572022-12-07 12:22:0843.3926-7.90824582416487Clb=4.6m/s p=94.3hPa t=-61.4C h=2.5% 404.000MHz Type=RS41-SGP rdzTTGOsonde
EB4FMT-14S29503572022-12-07 12:22:0543.3925-7.90846652416476Clb=3.8m/s t=-61.4C h=2.4% p=94.4hPa 404.001 MHz Type=RS41-SGP ser=S2950357 Radiosonde auto_rx v1.5.9
EB4FMT-14S29503572022-12-07 12:21:5343.3991-7.97059774614384Clb=4.1m/s t=-58.5C h=2.3% p=132.1hPa 404.001 MHz Type=RS41-SGP ser=S2950357 Radiosonde auto_rx v1.5.9
EA1JAY-15S29503572022-12-07 12:21:1643.3988-7.97347804314320Clb=3.6m/s p=133.5hPa t=-58.1C h=2.4% 404.000MHz Type=RS41-SGP rdzTTGOsonde
EB4FMT-14S29503572022-12-07 12:20:5143.3986-7.97543844314277Clb=3.8m/s t=-58.0C h=2.4% p=134.4hPa 404.001 MHz Type=RS41-SGP ser=S2950357 Radiosonde auto_rx v1.5.9
EB4FMT-14S29503572022-12-07 12:19:4843.3986-7.980111014114170Clb=4.0m/s t=-57.7C h=2.5% p=136.7hPa 404.001 MHz Type=RS41-SGP ser=S2950357 Radiosonde auto_rx v1.5.9
EB4FMT-14S29503572022-12-07 12:18:3643.3988-7.98465854314065Clb=3.4m/s t=-58.5C h=2.7% p=139.0hPa 404.001 MHz Type=RS41-SGP ser=S2950357 Radiosonde auto_rx v1.5.9
EB4FMT-14S29503572022-12-07 12:17:3443.3987-7.98939944813962Clb=3.6m/s t=-59.1C h=2.9% p=141.4hPa 404.001 MHz Type=RS41-SGP ser=S2950357 Radiosonde auto_rx v1.5.9
EB4FMT-14S29503572022-12-07 12:16:3743.3986-7.99506875213857Clb=3.4m/s t=-59.9C h=3.0% p=143.7hPa 404.001 MHz Type=RS41-SGP ser=S2950357 Radiosonde auto_rx v1.5.9
EB4FMT-14S29503572022-12-07 12:15:4443.3983-8.00097886713752Clb=3.1m/s t=-59.9C h=3.0% p=146.2hPa 404.001 MHz Type=RS41-SGP ser=S2950357 Radiosonde auto_rx v1.5.9
EB4FMT-14S29503572022-12-07 12:14:4843.3978-8.00715755913643Clb=3.2m/s t=-59.2C h=2.9% p=148.8hPa 404.001 MHz Type=RS41-SGP ser=S2950357 Radiosonde auto_rx v1.5.9
EB4FMT-14S29503572022-12-07 12:13:5043.3969-8.01288755713536Clb=3.5m/s t=-58.6C h=2.9% p=151.3hPa 404.001 MHz Type=RS41-SGP ser=S2950357 Radiosonde auto_rx v1.5.9
EA1JAY-15S29503572022-12-07 12:13:0743.3963-8.01607715413465Clb=3.6m/s p=153.0hPa t=-59.0C h=3.0% 404.000MHz Type=RS41-SGP rdzTTGOsonde
EB4FMT-14S29503572022-12-07 12:12:4543.3959-8.01787725013425Clb=4.5m/s t=-59.1C h=3.1% p=154.0hPa 404.001 MHz Type=RS41-SGP ser=S2950357 Radiosonde auto_rx v1.5.9
EB4FMT-14S29503572022-12-07 12:11:3743.3949-8.02322805413315Clb=3.3m/s t=-58.6C h=3.1% p=156.8hPa 404.001 MHz Type=RS41-SGP ser=S2950357 Radiosonde auto_rx v1.5.9
EA1JAY-15S29503572022-12-07 12:10:4743.3944-8.02758816313234Clb=3.4m/s p=158.8hPa t=-58.6C h=3.2% 404.000MHz Type=RS41-SGP rdzTTGOsonde
EB4FMT-14S29503572022-12-07 12:10:2943.3942-8.02916815913204Clb=3.4m/s t=-58.6C h=3.1% p=159.6hPa 404.001 MHz Type=RS41-SGP ser=S2950357 Radiosonde auto_rx v1.5.9
EA1JAY-15S29503572022-12-07 12:09:4643.3938-8.03243845713144Clb=4.1m/s p=161.1hPa t=-58.6C h=3.3% 404.000MHz Type=RS41-SGP rdzTTGOsonde
EB4FMT-14S29503572022-12-07 12:09:1843.3935-8.03487775413098Clb=3.0m/s t=-58.4C h=3.2% p=162.3hPa 404.001 MHz Type=RS41-SGP ser=S2950357 Radiosonde auto_rx v1.5.9
EA1JAY-15S29503572022-12-07 12:08:4843.393-8.03717735013052Clb=3.2m/s p=163.5hPa t=-58.5C h=3.3% 404.000MHz Type=RS41-SGP rdzTTGOsonde
EB4FMT-14S29503572022-12-07 12:08:1343.3924-8.03979704112990Clb=3.1m/s t=-58.8C h=3.5% p=165.1hPa 404.001 MHz Type=RS41-SGP ser=S2950357 Radiosonde auto_rx v1.5.9
EA1JAY-15S29503572022-12-07 12:07:1243.3919-8.04344803312893Clb=3.5m/s p=167.7hPa t=-59.1C h=3.7% 404.000MHz Type=RS41-SGP rdzTTGOsonde
EB4FMT-14S29503572022-12-07 12:07:0843.3919-8.04379883112882Clb=3.2m/s t=-59.1C h=3.8% p=168.0hPa 404.001 MHz Type=RS41-SGP ser=S2950357 Radiosonde auto_rx v1.5.9
EB4FMT-14S29503572022-12-07 12:06:0343.3922-8.047741054412769Clb=3.0m/s t=-58.7C h=3.8% p=171.0hPa 404.001 MHz Type=RS41-SGP ser=S2950357 Radiosonde auto_rx v1.5.9
EA1JAY-15S29503572022-12-07 12:05:5743.3922-8.048031044312762Clb=3.7m/s p=171.2hPa t=-58.7C h=3.9% 404.000MHz Type=RS41-SGP rdzTTGOsonde
EA1JAY-15S29503572022-12-07 12:05:0943.3928-8.051831015612681Clb=4.2m/s p=173.4hPa t=-59.2C h=4.2% 404.000MHz Type=RS41-SGP rdzTTGOsonde
EB4FMT-14S29503572022-12-07 12:05:0143.3929-8.05277955612663Clb=3.7m/s t=-59.1C h=4.3% p=173.9hPa 404.001 MHz Type=RS41-SGP ser=S2950357 Radiosonde auto_rx v1.5.9
EB4FMT-14S29503572022-12-07 12:04:0043.3929-8.05846805212553Clb=4.0m/s t=-59.5C h=4.8% p=177.0hPa 404.001 MHz Type=RS41-SGP ser=S2950357 Radiosonde auto_rx v1.5.9
EA1JAY-15S29503572022-12-07 12:03:4843.3926-8.06021815012517Clb=3.8m/s p=178.0hPa t=-60.0C h=5.4% 404.000MHz Type=RS41-SGP rdzTTGOsonde
EB4FMT-14S29503572022-12-07 12:03:3643.3923-8.06367845012444Clb=4.3m/s t=-60.0C h=5.9% p=180.1hPa 404.001 MHz Type=RS41-SGP ser=S2950357 Radiosonde auto_rx v1.5.9
EA1JAY-15S29503572022-12-07 12:03:3443.3923-8.06384825012439Clb=4.2m/s p=180.2hPa t=-60.0C h=5.9% 404.000MHz Type=RS41-SGP rdzTTGOsonde
EA1JAY-15S29503572022-12-07 12:03:0543.3919-8.06904906312340Clb=4.1m/s p=183.1hPa t=-59.4C h=6.1% 404.000MHz Type=RS41-SGP rdzTTGOsonde
EB4FMT-14S29503572022-12-07 12:03:0243.3919-8.07011865712320Clb=4.0m/s t=-59.5C h=6.1% p=183.7hPa 404.001 MHz Type=RS41-SGP ser=S2950357 Radiosonde auto_rx v1.5.9
EA1JAY-15S29503572022-12-07 12:02:5243.3931-8.09601926711825Clb=4.0m/s p=198.9hPa t=-58.7C h=14.1% 404.000MHz Type=RS41-SGP rdzTTGOsonde
EB4FMT-14S29503572022-12-07 12:02:5143.3931-8.09831866511789Clb=3.0m/s t=-59.1C h=15.5% p=200.0hPa 404.001 MHz Type=RS41-SGP ser=S2950357 Radiosonde auto_rx v1.5.9
EA1JAY-15S29503572022-12-07 12:02:5043.393-8.10063867011756Clb=2.7m/s p=201.1hPa t=-60.0C h=17.1% 404.000MHz Type=RS41-SGP rdzTTGOsonde
EB4FMT-14S29503572022-12-07 12:02:4643.3928-8.10518886911692Clb=2.7m/s t=-60.3C h=20.6% p=203.1hPa 404.001 MHz Type=RS41-SGP ser=S2950357 Radiosonde auto_rx v1.5.9
EA1JAY-15S29503572022-12-07 12:02:2243.3927-8.10978888311627Clb=3.3m/s p=205.2hPa t=-59.8C h=25.0% 404.000MHz Type=RS41-SGP rdzTTGOsonde
EB4FMT-14S29503572022-12-07 12:02:0543.3925-8.11309847811583Clb=3.6m/s t=-60.2C h=30.3% p=206.7hPa 404.001 MHz Type=RS41-SGP ser=S2950357 Radiosonde auto_rx v1.5.9
EA1JAY-15S29503572022-12-07 12:01:5843.3919-8.120787410211468Clb=6.3m/s p=210.6hPa t=-63.9C h=48.1% 404.000MHz Type=RS41-SGP rdzTTGOsonde
EA1JAY-15S29503572022-12-07 12:01:5543.3894-8.12847699411352Clb=4.6m/s p=214.6hPa t=-63.3C h=51.0% 404.000MHz Type=RS41-SGP rdzTTGOsonde
EB4FMT-14S29503572022-12-07 12:01:5443.3885-8.13125678911305Clb=4.4m/s t=-63.2C h=50.5% p=216.1hPa 404.001 MHz Type=RS41-SGP ser=S2950357 Radiosonde auto_rx v1.5.9
EA1JAY-15S29503572022-12-07 12:01:5243.3875-8.13459769611249Clb=6.3m/s p=218.2hPa t=-62.8C h=50.1% 404.000MHz Type=RS41-SGP rdzTTGOsonde
EB4FMT-14S29503572022-12-07 12:01:5043.387-8.13977868011134Clb=5.5m/s t=-62.4C h=49.6% p=222.4hPa 404.001 MHz Type=RS41-SGP ser=S2950357 Radiosonde auto_rx v1.5.9
EA1JAY-15S29503572022-12-07 12:01:4943.387-8.14056907611119Clb=4.6m/s p=222.9hPa t=-62.3C h=50.2% 404.000MHz Type=RS41-SGP rdzTTGOsonde
EA1JAY-15S29503572022-12-07 12:01:4843.3871-8.1463988111027Clb=3.5m/s p=226.3hPa t=-61.7C h=52.7% 404.000MHz Type=RS41-SGP rdzTTGOsonde
EB4FMT-14S29503572022-12-07 12:01:4743.3872-8.14808928910997Clb=3.6m/s t=-61.4C h=52.7% p=227.3hPa 404.001 MHz Type=RS41-SGP ser=S2950357 Radiosonde auto_rx v1.5.9
EA1JAY-15S29503572022-12-07 12:01:4643.3876-8.152211028910927Clb=7.9m/s p=229.9hPa t=-60.8C h=54.7% 404.000MHz Type=RS41-SGP rdzTTGOsonde
EB4FMT-14S29503572022-12-07 12:01:4543.3881-8.15683929610834Clb=4.8m/s t=-60.0C h=53.0% p=233.4hPa 404.001 MHz Type=RS41-SGP ser=S2950357 Radiosonde auto_rx v1.5.9
EA1JAY-15S29503572022-12-07 12:01:4243.3882-8.158461049310813Clb=5.2m/s p=234.2hPa t=-59.8C h=52.1% 404.000MHz Type=RS41-SGP rdzTTGOsonde
EA1JAY-15S29503572022-12-07 12:01:1643.3889-8.165311009610724Clb=4.7m/s p=237.6hPa t=-59.0C h=53.2% 404.000MHz Type=RS41-SGP rdzTTGOsonde
EB4FMT-14S29503572022-12-07 12:01:1143.3891-8.16657999310706Clb=4.1m/s t=-58.9C h=52.7% p=238.2hPa 404.001 MHz Type=RS41-SGP ser=S2950357 Radiosonde auto_rx v1.5.9
EA1JAY-15S29503572022-12-07 12:00:3643.3895-8.17157999610644Clb=3.4m/s p=240.6hPa t=-58.6C h=53.5% 404.000MHz Type=RS41-SGP rdzTTGOsonde
EB4FMT-14S29503572022-12-07 12:00:1143.3898-8.176099710210584Clb=4.1m/s t=-58.5C h=53.2% p=242.8hPa 404.001 MHz Type=RS41-SGP ser=S2950357 Radiosonde auto_rx v1.5.9
EA1JAY-15S29503572022-12-07 11:59:5043.39-8.17881939810554Clb=4.6m/s p=244.0hPa t=-58.5C h=56.1% 404.000MHz Type=RS41-SGP rdzTTGOsonde
EB4FMT-14S29503572022-12-07 11:59:0643.3899-8.186879110710470Clb=3.5m/s t=-58.9C h=62.7% p=247.4hPa 404.001 MHz Type=RS41-SGP ser=S2950357 Radiosonde auto_rx v1.5.9
EA1JAY-15S29503572022-12-07 11:58:4243.39-8.190678911110434Clb=1.7m/s p=248.8hPa t=-58.7C h=59.3% 404.000MHz Type=RS41-SGP rdzTTGOsonde
EB4FMT-14S29503572022-12-07 11:58:0243.3898-8.19806919810354Clb=6.3m/s t=-58.0C h=54.2% p=252.0hPa 404.001 MHz Type=RS41-SGP ser=S2950357 Radiosonde auto_rx v1.5.9
EA1JAY-15S29503572022-12-07 11:57:4043.3897-8.200878710010309Clb=5.7m/s p=253.8hPa t=-57.5C h=50.6% 404.000MHz Type=RS41-SGP rdzTTGOsonde
EA1JAY-15S29503572022-12-07 11:56:5343.3898-8.207988910610202Clb=4.8m/s p=258.1hPa t=-56.5C 404.000MHz Type=RS41-SGP rdzTTGOsonde
EB4FMT-14S29503572022-12-07 11:56:5143.3898-8.208719010910192Clb=4.8m/s t=-56.4C h=45.8% p=258.5hPa 404.001 MHz Type=RS41-SGP ser=S2950357 Radiosonde auto_rx v1.5.9
EA1JAY-15S29503572022-12-07 11:56:0943.3899-8.215529110210102Clb=4.9m/s p=262.2hPa t=-55.5C 404.000MHz Type=RS41-SGP rdzTTGOsonde
EB4FMT-14S29503572022-12-07 11:55:5043.39-8.219399110210055Clb=4.4m/s t=-55.2C h=49.7% p=264.1hPa 404.001 MHz Type=RS41-SGP ser=S2950357 Radiosonde auto_rx v1.5.9
EA1JAY-15S29503572022-12-07 11:55:0843.3902-8.22674961009964Clb=3.4m/s p=267.9hPa t=-54.6C 404.000MHz Type=RS41-SGP rdzTTGOsonde
EB4FMT-14S29503572022-12-07 11:54:5443.3904-8.2297594949929Clb=2.8m/s t=-54.2C h=54.0% p=269.4hPa 404.001 MHz Type=RS41-SGP ser=S2950357 Radiosonde auto_rx v1.5.9
EA1JAY-15S29503572022-12-07 11:54:3243.3907-8.233796969884Clb=3.9m/s p=271.2hPa t=-53.9C 404.000MHz Type=RS41-SGP rdzTTGOsonde
EB4FMT-14S29503572022-12-07 11:53:5743.3911-8.2395297919816Clb=4.3m/s t=-53.3C h=52.6% p=274.1hPa 404.001 MHz Type=RS41-SGP ser=S2950357 Radiosonde auto_rx v1.5.9
EA1JAY-15S29503572022-12-07 11:53:4943.3911-8.2404698939804Clb=5.2m/s p=274.7hPa t=-53.2C 404.000MHz Type=RS41-SGP rdzTTGOsonde
EB4FMT-14S29503572022-12-07 11:53:0043.3917-8.2489399859684Clb=3.9m/s t=-52.1C h=52.0% p=279.9hPa 404.001 MHz Type=RS41-SGP ser=S2950357 Radiosonde auto_rx v1.5.9
EA1JAY-15S29503572022-12-07 11:52:4443.392-8.2507396919655Clb=4.2m/s p=281.1hPa t=-51.9C 404.000MHz Type=RS41-SGP rdzTTGOsonde
EA1JAY-15S29503572022-12-07 11:52:0043.3926-8.25726100859562Clb=3.5m/s p=285.1hPa t=-51.1C 404.000MHz Type=RS41-SGP rdzTTGOsonde
EA1JAY-15S29503572022-12-07 11:51:3943.3933-8.26332101839481Clb=4.2m/s p=288.7hPa t=-50.2C 404.000MHz Type=RS41-SGP rdzTTGOsonde
EB4FMT-14S29503572022-12-07 11:51:3043.3937-8.2665199859440Clb=3.9m/s t=-49.9C h=45.3% p=290.4hPa 404.001 MHz Type=RS41-SGP ser=S2950357 Radiosonde auto_rx v1.5.9
EB4FMT-14S29503572022-12-07 11:51:1743.3999-8.3335787808558Clb=3.9m/s t=-42.1C h=45.1% p=331.8hPa 404.001 MHz Type=RS41-SGP ser=S2950357 Radiosonde auto_rx v1.5.9
EB4FMT-14S29503572022-12-07 11:51:1543.3997-8.341886818445Clb=3.6m/s t=-41.0C h=42.2% p=337.3hPa 404.001 MHz Type=RS41-SGP ser=S2950357 Radiosonde auto_rx v1.5.9
EB4FMT-14S29503572022-12-07 11:51:1343.3995-8.3499691818340Clb=4.1m/s t=-40.0C h=39.0% p=342.6hPa 404.001 MHz Type=RS41-SGP ser=S2950357 Radiosonde auto_rx v1.5.9
EB4FMT-14S29503572022-12-07 11:51:0443.3993-8.3581489788213Clb=6.6m/s t=-38.8C h=36.2% p=348.8hPa 404.001 MHz Type=RS41-SGP ser=S2950357 Radiosonde auto_rx v1.5.9
EB4FMT-14S29503572022-12-07 11:50:1243.3994-8.3660893748071Clb=6.0m/s t=-37.5C h=37.8% p=356.1hPa 404.001 MHz Type=RS41-SGP ser=S2950357 Radiosonde auto_rx v1.5.9
EB4FMT-14S29503572022-12-07 11:49:1943.3995-8.3738592697928Clb=6.6m/s t=-36.4C h=36.7% p=363.6hPa 404.001 MHz Type=RS41-SGP ser=S2950357 Radiosonde auto_rx v1.5.9
EB4FMT-14S29503572022-12-07 11:48:2443.3995-8.3807990657787Clb=3.6m/s t=-35.2C h=30.8% p=371.1hPa 404.001 MHz Type=RS41-SGP ser=S2950357 Radiosonde auto_rx v1.5.9
EB4FMT-14S29503572022-12-07 11:47:2843.399-8.3875386697661Clb=2.9m/s t=-34.1C h=26.7% p=378.0hPa 404.001 MHz Type=RS41-SGP ser=S2950357 Radiosonde auto_rx v1.5.9
EB4FMT-14S29503572022-12-07 11:46:2943.3983-8.3942576597518Clb=4.9m/s t=-33.1C h=20.6% p=385.7hPa 404.001 MHz Type=RS41-SGP ser=S2950357 Radiosonde auto_rx v1.5.9
EB4FMT-14S29503572022-12-07 11:45:3443.3971-8.4003972637401Clb=3.4m/s t=-32.3C h=13.1% p=392.2hPa 404.001 MHz Type=RS41-SGP ser=S2950357 Radiosonde auto_rx v1.5.9
EB4FMT-14S29503572022-12-07 11:44:3943.396-8.4063681567270Clb=3.3m/s t=-31.3C h=14.6% p=399.5hPa 404.001 MHz Type=RS41-SGP ser=S2950357 Radiosonde auto_rx v1.5.9
EB4FMT-14S29503572022-12-07 11:44:0043.3954-8.4115986447106Clb=7.0m/s t=-30.1C h=17.3% p=408.9hPa 404.001 MHz Type=RS41-SGP ser=S2950357 Radiosonde auto_rx v1.5.9
EA1JAY-15S29503572022-12-07 11:43:5343.3952-8.4153587336958Clb=4.2m/s t=-29.8C 404.000MHz Type=RS41 rdzTTGOsonde
EB4FMT-14S29503572022-12-07 11:43:5243.3952-8.4155787316950Clb=3.2m/s t=-29.7C h=35.9% p=417.9hPa 404.001 MHz Type=RS41-SGP ser=S2950357 Radiosonde auto_rx v1.5.9
EB4FMT-14S29503572022-12-07 11:43:4443.3951-8.4186290286845Clb=3.5m/s t=-28.8C h=35.3% p=424.0hPa 404.001 MHz Type=RS41-SGP ser=S2950357 Radiosonde auto_rx v1.5.9
EA1JAY-15S29503572022-12-07 11:43:3843.3951-8.4192384306824Clb=3.6m/s t=-28.6C 404.000MHz Type=RS41 rdzTTGOsonde
EA1JAY-15S29503572022-12-07 11:43:2143.3949-8.4211889266754Clb=2.8m/s t=-28.1C 404.000MHz Type=RS41 rdzTTGOsonde
EB4FMT-14S29503572022-12-07 11:43:1843.3949-8.4215579286740Clb=4.5m/s t=-27.9C h=36.4% p=430.4hPa 404.001 MHz Type=RS41-SGP ser=S2950357 Radiosonde auto_rx v1.5.9
EA1JAY-15S29503572022-12-07 11:42:5743.3947-8.4231483306674Clb=3.8m/s t=-27.3C 404.000MHz Type=RS41 rdzTTGOsonde
EB4FMT-14S29503572022-12-07 11:42:5043.3945-8.4242166306630Clb=3.7m/s t=-27.0C h=36.4% p=436.9hPa 404.001 MHz Type=RS41-SGP ser=S2950357 Radiosonde auto_rx v1.5.9
EA1JAY-15S29503572022-12-07 11:42:3443.3942-8.4255777266575Clb=3.9m/s t=-26.6C 404.000MHz Type=RS41 rdzTTGOsonde
EB4FMT-14S29503572022-12-07 11:42:1043.394-8.4269677246509Clb=4.4m/s t=-26.1C h=36.3% p=444.2hPa 404.001 MHz Type=RS41-SGP ser=S2950357 Radiosonde auto_rx v1.5.9
EA1JAY-15S29503572022-12-07 11:41:4943.3938-8.4279175306466Clb=2.8m/s t=-25.8C 404.000MHz Type=RS41 rdzTTGOsonde
EB4FMT-14S29503572022-12-07 11:41:2043.3934-8.4297669316393Clb=3.7m/s t=-25.1C h=38.3% p=451.6hPa 404.001 MHz Type=RS41-SGP ser=S2950357 Radiosonde auto_rx v1.5.9
EA1JAY-15S29503572022-12-07 11:41:1243.3933-8.4299567286386Clb=3.2m/s t=-25.1C 404.000MHz Type=RS41 rdzTTGOsonde
EA1JAY-15S29503572022-12-07 11:40:3743.3928-8.4320576286308Clb=4.2m/s 404.000MHz Type=RS41 rdzTTGOsonde
EB4FMT-14S29503572022-12-07 11:40:2643.3927-8.4326968306281Clb=3.6m/s t=-24.5C h=45.8% p=458.6hPa 404.001 MHz Type=RS41-SGP ser=S2950357 Radiosonde auto_rx v1.5.9
EB4FMT-14S29503572022-12-07 11:39:5043.3919-8.4352771246173Clb=3.3m/s t=-23.6C h=41.2% p=465.5hPa 404.001 MHz Type=RS41-SGP ser=S2950357 Radiosonde auto_rx v1.5.9
EA1JAY-15S29503572022-12-07 11:39:4243.3919-8.4355279266162Clb=3.6m/s 404.000MHz Type=RS41 rdzTTGOsonde
EA1JAY-15S29503572022-12-07 11:39:0243.3914-8.4372767266084Clb=4.1m/s 404.000MHz Type=RS41 rdzTTGOsonde
EB4FMT-14S29503572022-12-07 11:38:5343.3913-8.4377269226060Clb=3.7m/s t=-22.6C h=39.6% p=472.5hPa 404.001 MHz Type=RS41-SGP ser=S2950357 Radiosonde auto_rx v1.5.9
EA1JAY-15S29503572022-12-07 11:38:2343.3909-8.43967286004Clb=3.9m/s 404.000MHz Type=RS41 rdzTTGOsonde
EB4FMT-14S29503572022-12-07 11:37:5643.3906-8.4403167285948Clb=4.0m/s t=-21.6C h=41.5% p=479.7hPa 404.001 MHz Type=RS41-SGP ser=S2950357 Radiosonde auto_rx v1.5.9
EA1JAY-15S29503572022-12-07 11:37:2643.3903-8.4414770305902Clb=3.3m/s 404.000MHz Type=RS41 rdzTTGOsonde
EB4FMT-14S29503572022-12-07 11:36:5643.3899-8.4430373285841Clb=4.5m/s t=-20.8C h=49.2% p=486.8hPa 404.001 MHz Type=RS41-SGP ser=S2950357 Radiosonde auto_rx v1.5.9
EA1JAY-15S29503572022-12-07 11:36:4643.3898-8.4434376315826Clb=4.2m/s 404.000MHz Type=RS41 rdzTTGOsonde
EA1JAY-15S29503572022-12-07 11:36:0243.3893-8.4457777335737Clb=3.3m/s 404.000MHz Type=RS41 rdzTTGOsonde
EB4FMT-14S29503572022-12-07 11:36:0043.3892-8.4461179315724Clb=4.5m/s t=-19.7C h=44.1% p=494.7hPa 404.001 MHz Type=RS41-SGP ser=S2950357 Radiosonde auto_rx v1.5.9
EA1JAY-15S29503572022-12-07 11:35:3443.3888-8.4485473305636Clb=4.0m/s 404.000MHz Type=RS41 rdzTTGOsonde
EB4FMT-14S29503572022-12-07 11:35:3143.3887-8.4490783305613Clb=3.8m/s t=-18.8C h=34.8% p=502.2hPa 404.001 MHz Type=RS41-SGP ser=S2950357 Radiosonde auto_rx v1.5.9
EA1JAY-15S29503572022-12-07 11:35:0643.3885-8.4511978205525Clb=3.4m/s 404.000MHz Type=RS41 rdzTTGOsonde
EB4FMT-14S29503572022-12-07 11:35:0043.3884-8.4517189195496Clb=3.2m/s t=-18.5C h=42.2% p=510.1hPa 404.001 MHz Type=RS41-SGP ser=S2950357 Radiosonde auto_rx v1.5.9
EA1JAY-15S29503572022-12-07 11:34:4343.3883-8.4528267115423Clb=3.9m/s 404.000MHz Type=RS41 rdzTTGOsonde
EB4FMT-14S29503572022-12-07 11:34:4243.3882-8.453357135387Clb=3.6m/s t=-17.5C h=43.6% p=517.4hPa 404.001 MHz Type=RS41-SGP ser=S2950357 Radiosonde auto_rx v1.5.9
EA1JAY-15S29503572022-12-07 11:34:4143.3879-8.4540879135331Clb=3.3m/s 404.000MHz Type=RS41 rdzTTGOsonde
EA1JAY-15S29503572022-12-07 11:34:4043.3877-8.4552578195255Clb=3.7m/s 404.000MHz Type=RS41 rdzTTGOsonde
EA1JAY-15S29503572022-12-07 11:34:2743.3873-8.4564858225186Clb=2.8m/s 404.000MHz Type=RS41 rdzTTGOsonde
EB4FMT-14S29503572022-12-07 11:34:2543.3872-8.4567469195172Clb=3.5m/s t=-15.5C h=38.2% p=532.5hPa 404.001 MHz Type=RS41-SGP ser=S2950357 Radiosonde auto_rx v1.5.9
EA1JAY-15S29503572022-12-07 11:33:5443.3869-8.4578277195110Clb=3.1m/s 404.000MHz Type=RS41 rdzTTGOsonde
EB4FMT-14S29503572022-12-07 11:33:3443.3867-8.4587177265066Clb=4.4m/s t=-14.5C h=35.5% p=540.1hPa 404.001 MHz Type=RS41-SGP ser=S2950357 Radiosonde auto_rx v1.5.9
EB4FMT-14S29503572022-12-07 11:32:4743.3858-8.46165264938Clb=4.4m/s t=-13.4C h=24.3% p=549.2hPa 404.001 MHz Type=RS41-SGP ser=S2950357 Radiosonde auto_rx v1.5.9
EB4FMT-14S29503572022-12-07 11:32:0043.3848-8.463354264811Clb=4.0m/s t=-12.4C h=11.4% p=558.5hPa 404.001 MHz Type=RS41-SGP ser=S2950357 Radiosonde auto_rx v1.5.9
EB4FMT-14S29503572022-12-07 11:31:3043.3842-8.4654980244704Clb=3.9m/s t=-11.7C h=13.9% p=566.3hPa 404.001 MHz Type=RS41-SGP ser=S2950357 Radiosonde auto_rx v1.5.9
EB4FMT-14S29503572022-12-07 11:31:0043.3837-8.4673869224586Clb=2.9m/s t=-10.9C h=11.1% p=575.2hPa 404.001 MHz Type=RS41-SGP ser=S2950357 Radiosonde auto_rx v1.5.9
EB4FMT-14S29503572022-12-07 11:30:3043.383-8.469158224461Clb=2.7m/s t=-10.1C h=12.2% p=584.4hPa 404.001 MHz Type=RS41-SGP ser=S2950357 Radiosonde auto_rx v1.5.9
EB4FMT-14S29503572022-12-07 11:30:0043.3825-8.4701954134330Clb=3.7m/s t=-9.3C h=13.3% p=594.9hPa 404.001 MHz Type=RS41-SGP ser=S2950357 Radiosonde auto_rx v1.5.9
EB4FMT-14S29503572022-12-07 11:29:5343.3815-8.4713449134198Clb=3.7m/s t=-8.1C h=13.4% p=605.0hPa 404.001 MHz Type=RS41-SGP ser=S2950357 Radiosonde auto_rx v1.5.9
EB4FMT-14S29503572022-12-07 11:29:2443.3807-8.4724347134082Clb=3.8m/s t=-7.3C h=3.4% p=613.7hPa 404.001 MHz Type=RS41-SGP ser=S2950357 Radiosonde auto_rx v1.5.9
EB4FMT-14S29503572022-12-07 11:28:3943.38-8.473031493967Clb=4.3m/s t=-6.9C h=5.1% p=623.1hPa 404.001 MHz Type=RS41-SGP ser=S2950357 Radiosonde auto_rx v1.5.9
EB4FMT-14S29503572022-12-07 11:28:0043.3794-8.4729234163850Clb=4.1m/s t=-6.2C h=6.7% p=632.5hPa 404.001 MHz Type=RS41-SGP ser=S2950357 Radiosonde auto_rx v1.5.9
EA1JAY-15S29503572022-12-07 11:27:3143.3789-8.4728973744Clb=3.4m/s 404.000MHz Type=RS41 rdzTTGOsonde
EB4FMT-14S29503572022-12-07 11:27:3043.3789-8.47281473734Clb=2.8m/s t=-5.5C h=3.7% p=642.0hPa 404.001 MHz Type=RS41-SGP ser=S2950357 Radiosonde auto_rx v1.5.9
EB4FMT-14S29503572022-12-07 11:27:0043.3782-8.472961273617Clb=3.3m/s t=-4.7C h=4.8% p=651.3hPa 404.001 MHz Type=RS41-SGP ser=S2950357 Radiosonde auto_rx v1.5.9
EB4FMT-14S29503572022-12-07 11:26:3043.3774-8.47288328113499Clb=3.6m/s t=-3.6C h=4.4% p=661.2hPa 404.001 MHz Type=RS41-SGP ser=S2950357 Radiosonde auto_rx v1.5.9
EB4FMT-14S29503572022-12-07 11:26:0043.3767-8.4723829393380Clb=4.1m/s t=-2.7C h=4.4% p=671.4hPa 404.001 MHz Type=RS41-SGP ser=S2950357 Radiosonde auto_rx v1.5.9
EB4FMT-14S29503572022-12-07 11:25:3043.3761-8.471951093274Clb=2.8m/s t=-2.0C h=3.5% p=680.6hPa 404.001 MHz Type=RS41-SGP ser=S2950357 Radiosonde auto_rx v1.5.9
EB4FMT-14S29503572022-12-07 11:25:1443.3758-8.4717135323156Clb=2.3m/s t=-1.6C h=3.3% p=690.8hPa 404.001 MHz Type=RS41-SGP ser=S2950357 Radiosonde auto_rx v1.5.9
EB4FMT-14S29503572022-12-07 11:24:3643.3756-8.4709526673044Clb=3.5m/s t=-1.1C h=3.0% p=700.7hPa 404.001 MHz Type=RS41-SGP ser=S2950357 Radiosonde auto_rx v1.5.9
EB4FMT-14S29503572022-12-07 11:24:0043.3756-8.4700625672944Clb=3.5m/s t=-0.6C h=2.9% p=709.6hPa 404.001 MHz Type=RS41-SGP ser=S2950357 Radiosonde auto_rx v1.5.9
EB4FMT-14S29503572022-12-07 11:23:3043.3752-8.46929356112801Clb=5.2m/s t=-2.3C h=10.3% p=722.6hPa 404.001 MHz Type=RS41-SGP ser=S2950357 Radiosonde auto_rx v1.5.9
EB4FMT-14S29503572022-12-07 11:23:0043.3738-8.46866341262649Clb=5.1m/s t=-4.6C h=96.2% p=736.6hPa 404.001 MHz Type=RS41-SGP ser=S2950357 Radiosonde auto_rx v1.5.9
EB4FMT-14S29503572022-12-07 11:22:3043.3722-8.46791324222502Clb=4.9m/s t=-3.5C h=88.3% p=750.4hPa 404.001 MHz Type=RS41-SGP ser=S2950357 Radiosonde auto_rx v1.5.9
EB4FMT-14S29503572022-12-07 11:22:0043.3711-8.4671830572352Clb=5.3m/s t=-2.3C h=84.9% p=764.7hPa 404.001 MHz Type=RS41-SGP ser=S2950357 Radiosonde auto_rx v1.5.9
EB4FMT-14S29503572022-12-07 11:21:3043.37-8.46581314222200Clb=5.5m/s t=-1.2C h=87.2% p=779.7hPa 404.001 MHz Type=RS41-SGP ser=S2950357 Radiosonde auto_rx v1.5.9
EB4FMT-14S29503572022-12-07 11:21:0143.369-8.46347304302035Clb=5.6m/s t=0.2C h=79.3% p=795.7hPa 404.001 MHz Type=RS41-SGP ser=S2950357 Radiosonde auto_rx v1.5.9
EB4FMT-14S29503572022-12-07 11:20:3143.3681-8.46092296201877Clb=4.0m/s t=1.7C h=73.2% p=811.6hPa 404.001 MHz Type=RS41-SGP ser=S2950357 Radiosonde auto_rx v1.5.9
EB4FMT-14S29503572022-12-07 11:20:0043.3676-8.45849273241715Clb=5.0m/s t=3.2C h=71.3% p=827.8hPa 404.001 MHz Type=RS41-SGP ser=S2950357 Radiosonde auto_rx v1.5.9
EB4FMT-14S29503572022-12-07 11:19:3043.367-8.45593291261561Clb=4.7m/s t=4.5C h=69.8% p=843.8hPa 404.001 MHz Type=RS41-SGP ser=S2950357 Radiosonde auto_rx v1.5.9
EB4FMT-14S29503572022-12-07 11:19:0043.3665-8.45353286191395Clb=5.3m/s t=6.0C h=68.3% p=861.3hPa 404.001 MHz Type=RS41-SGP ser=S2950357 Radiosonde auto_rx v1.5.9
EB4FMT-14S29503572022-12-07 11:18:3043.3659-8.45149302241248Clb=4.4m/s t=6.9C h=-1.0% p=876.8hPa 404.001 MHz Type=RS41-SGP ser=S2950357 Radiosonde auto_rx v1.5.9
EB4FMT-14S29503572022-12-07 11:18:0043.3656-8.4499327971096Clb=5.4m/s t=-273.0C h=-1.0% p=-1.0hPa 404.001 MHz Type=RS41 ser=S2950357 Radiosonde auto_rx v1.5.9